<?xml version="1.0" encoding="UTF-8" standalone="no" ?>
<gpx xmlns="http://www.topografix.com/GPX/1/1" xmlns:xsi="http://www.w3.org/2001/XMLSchema-instance" xsi:schemaLocation="http://www.topografix.com/GPX/1/1 http://www.topografix.com/GPX/1/1/gpx.xsd" version="1.1" creator="VisuGPX - https://www.visugpx.com">
  <metadata>
    <name>BOUCONNE SUD D42 sentiers etangs 9.5km</name>
  </metadata>
  <trk>
    <name><![CDATA[BOUCONNE SUD D42 sentiers etangs 9.5km]]></name>
    <trkseg>
      <trkpt lat="43.61455" lon="1.19751">
        <ele>219</ele>
        <time>2019-12-05T08:15:41.000Z</time>
      </trkpt>
      <trkpt lat="43.61477" lon="1.19687">
        <ele>220</ele>
        <time>2019-12-05T08:16:20.803Z</time>
      </trkpt>
      <trkpt lat="43.61483" lon="1.19675">
        <ele>220</ele>
        <time>2019-12-05T08:16:28.578Z</time>
      </trkpt>
      <trkpt lat="43.61484" lon="1.19661">
        <ele>220</ele>
        <time>2019-12-05T08:16:36.334Z</time>
      </trkpt>
      <trkpt lat="43.61484" lon="1.19648">
        <ele>221</ele>
        <time>2019-12-05T08:16:43.971Z</time>
      </trkpt>
      <trkpt lat="43.61483" lon="1.19635">
        <ele>221</ele>
        <time>2019-12-05T08:16:51.033Z</time>
      </trkpt>
      <trkpt lat="43.61484" lon="1.19623">
        <ele>222</ele>
        <time>2019-12-05T08:16:57.985Z</time>
      </trkpt>
      <trkpt lat="43.61488" lon="1.1961">
        <ele>222</ele>
        <time>2019-12-05T08:17:05.403Z</time>
      </trkpt>
      <trkpt lat="43.61491" lon="1.19599">
        <ele>222</ele>
        <time>2019-12-05T08:17:12.399Z</time>
      </trkpt>
      <trkpt lat="43.61497" lon="1.19589">
        <ele>222</ele>
        <time>2019-12-05T08:17:19.563Z</time>
      </trkpt>
      <trkpt lat="43.61503" lon="1.19579">
        <ele>222</ele>
        <time>2019-12-05T08:17:26.561Z</time>
      </trkpt>
      <trkpt lat="43.61513" lon="1.19545">
        <ele>222</ele>
        <time>2019-12-05T08:17:47.132Z</time>
      </trkpt>
      <trkpt lat="43.61521" lon="1.19519">
        <ele>223</ele>
        <time>2019-12-05T08:18:03.259Z</time>
      </trkpt>
      <trkpt lat="43.61523" lon="1.19505">
        <ele>223</ele>
        <time>2019-12-05T08:18:11.061Z</time>
      </trkpt>
      <trkpt lat="43.61526" lon="1.19491">
        <ele>223</ele>
        <time>2019-12-05T08:18:19.136Z</time>
      </trkpt>
      <trkpt lat="43.61527" lon="1.19478">
        <ele>224</ele>
        <time>2019-12-05T08:18:26.154Z</time>
      </trkpt>
      <trkpt lat="43.61527" lon="1.19466">
        <ele>224</ele>
        <time>2019-12-05T08:18:33.236Z</time>
      </trkpt>
      <trkpt lat="43.61524" lon="1.19453">
        <ele>225</ele>
        <time>2019-12-05T08:18:40.417Z</time>
      </trkpt>
      <trkpt lat="43.61518" lon="1.19442">
        <ele>226</ele>
        <time>2019-12-05T08:18:48.021Z</time>
      </trkpt>
      <trkpt lat="43.61513" lon="1.1943">
        <ele>226</ele>
        <time>2019-12-05T08:18:55.689Z</time>
      </trkpt>
      <trkpt lat="43.61508" lon="1.19418">
        <ele>227</ele>
        <time>2019-12-05T08:19:03.406Z</time>
      </trkpt>
      <trkpt lat="43.61507" lon="1.19407">
        <ele>227</ele>
        <time>2019-12-05T08:19:09.316Z</time>
      </trkpt>
      <trkpt lat="43.6151" lon="1.19391">
        <ele>227</ele>
        <time>2019-12-05T08:19:19.033Z</time>
      </trkpt>
      <trkpt lat="43.61515" lon="1.19378">
        <ele>227</ele>
        <time>2019-12-05T08:19:27.262Z</time>
      </trkpt>
      <trkpt lat="43.61516" lon="1.19373">
        <ele>227</ele>
        <time>2019-12-05T08:19:30.121Z</time>
      </trkpt>
      <trkpt lat="43.61513" lon="1.19367">
        <ele>228</ele>
        <time>2019-12-05T08:19:33.958Z</time>
      </trkpt>
      <trkpt lat="43.61523" lon="1.19355">
        <ele>227</ele>
        <time>2019-12-05T08:19:44.171Z</time>
      </trkpt>
      <trkpt lat="43.61531" lon="1.19347">
        <ele>227</ele>
        <time>2019-12-05T08:19:52.343Z</time>
      </trkpt>
      <trkpt lat="43.61541" lon="1.19341">
        <ele>226</ele>
        <time>2019-12-05T08:20:00.230Z</time>
      </trkpt>
      <trkpt lat="43.6155" lon="1.19338">
        <ele>225</ele>
        <time>2019-12-05T08:20:07.606Z</time>
      </trkpt>
      <trkpt lat="43.61561" lon="1.19334">
        <ele>225</ele>
        <time>2019-12-05T08:20:16.586Z</time>
      </trkpt>
      <trkpt lat="43.61571" lon="1.19329">
        <ele>224</ele>
        <time>2019-12-05T08:20:24.518Z</time>
      </trkpt>
      <trkpt lat="43.6158" lon="1.19327">
        <ele>223</ele>
        <time>2019-12-05T08:20:31.763Z</time>
      </trkpt>
      <trkpt lat="43.6159" lon="1.19322">
        <ele>223</ele>
        <time>2019-12-05T08:20:39.558Z</time>
      </trkpt>
      <trkpt lat="43.61599" lon="1.19316">
        <ele>224</ele>
        <time>2019-12-05T08:20:47.040Z</time>
      </trkpt>
      <trkpt lat="43.61607" lon="1.19312">
        <ele>224</ele>
        <time>2019-12-05T08:20:54.226Z</time>
      </trkpt>
      <trkpt lat="43.61615" lon="1.19305">
        <ele>224</ele>
        <time>2019-12-05T08:21:01.315Z</time>
      </trkpt>
      <trkpt lat="43.61633" lon="1.19301">
        <ele>223</ele>
        <time>2019-12-05T08:21:14.818Z</time>
      </trkpt>
      <trkpt lat="43.61649" lon="1.19307">
        <ele>223</ele>
        <time>2019-12-05T08:21:28.088Z</time>
      </trkpt>
      <trkpt lat="43.61666" lon="1.19316">
        <ele>222</ele>
        <time>2019-12-05T08:21:41.560Z</time>
      </trkpt>
      <trkpt lat="43.61689" lon="1.19264">
        <ele>223</ele>
        <time>2019-12-05T08:22:15.487Z</time>
      </trkpt>
      <trkpt lat="43.61715" lon="1.19263">
        <ele>223</ele>
        <time>2019-12-05T08:22:35.530Z</time>
      </trkpt>
      <trkpt lat="43.6172" lon="1.19259">
        <ele>223</ele>
        <time>2019-12-05T08:22:39.780Z</time>
      </trkpt>
      <trkpt lat="43.61728" lon="1.19252">
        <ele>223</ele>
        <time>2019-12-05T08:22:46.727Z</time>
      </trkpt>
      <trkpt lat="43.61744" lon="1.19234">
        <ele>224</ele>
        <time>2019-12-05T08:23:03.172Z</time>
      </trkpt>
      <trkpt lat="43.6175" lon="1.1922">
        <ele>224</ele>
        <time>2019-12-05T08:23:12.049Z</time>
      </trkpt>
      <trkpt lat="43.61762" lon="1.19211">
        <ele>224</ele>
        <time>2019-12-05T08:23:22.380Z</time>
      </trkpt>
      <trkpt lat="43.61798" lon="1.19194">
        <ele>225</ele>
        <time>2019-12-05T08:23:51.959Z</time>
      </trkpt>
      <trkpt lat="43.61811" lon="1.19144">
        <ele>225</ele>
        <time>2019-12-05T08:24:21.882Z</time>
      </trkpt>
      <trkpt lat="43.61812" lon="1.19138">
        <ele>225</ele>
        <time>2019-12-05T08:24:25.062Z</time>
      </trkpt>
      <trkpt lat="43.61814" lon="1.19133">
        <ele>225</ele>
        <time>2019-12-05T08:24:28.393Z</time>
      </trkpt>
      <trkpt lat="43.61812" lon="1.19121">
        <ele>225</ele>
        <time>2019-12-05T08:24:34.755Z</time>
      </trkpt>
      <trkpt lat="43.61813" lon="1.1909">
        <ele>226</ele>
        <time>2019-12-05T08:24:52.321Z</time>
      </trkpt>
      <trkpt lat="43.61816" lon="1.19081">
        <ele>226</ele>
        <time>2019-12-05T08:24:57.905Z</time>
      </trkpt>
      <trkpt lat="43.6182" lon="1.19068">
        <ele>226</ele>
        <time>2019-12-05T08:25:05.522Z</time>
      </trkpt>
      <trkpt lat="43.61823" lon="1.19054">
        <ele>226</ele>
        <time>2019-12-05T08:25:13.864Z</time>
      </trkpt>
      <trkpt lat="43.61825" lon="1.19041">
        <ele>227</ele>
        <time>2019-12-05T08:25:21.240Z</time>
      </trkpt>
      <trkpt lat="43.61819" lon="1.19031">
        <ele>228</ele>
        <time>2019-12-05T08:25:28.435Z</time>
      </trkpt>
      <trkpt lat="43.61809" lon="1.19033">
        <ele>228</ele>
        <time>2019-12-05T08:25:35.985Z</time>
      </trkpt>
      <trkpt lat="43.61799" lon="1.19032">
        <ele>229</ele>
        <time>2019-12-05T08:25:43.334Z</time>
      </trkpt>
      <trkpt lat="43.6179" lon="1.19031">
        <ele>230</ele>
        <time>2019-12-05T08:25:50.729Z</time>
      </trkpt>
      <trkpt lat="43.61781" lon="1.19027">
        <ele>232</ele>
        <time>2019-12-05T08:25:58.042Z</time>
      </trkpt>
      <trkpt lat="43.61772" lon="1.19021">
        <ele>233</ele>
        <time>2019-12-05T08:26:05.271Z</time>
      </trkpt>
      <trkpt lat="43.61763" lon="1.1902">
        <ele>234</ele>
        <time>2019-12-05T08:26:12.290Z</time>
      </trkpt>
      <trkpt lat="43.61753" lon="1.19015">
        <ele>235</ele>
        <time>2019-12-05T08:26:20.405Z</time>
      </trkpt>
      <trkpt lat="43.61744" lon="1.19011">
        <ele>235</ele>
        <time>2019-12-05T08:26:27.754Z</time>
      </trkpt>
      <trkpt lat="43.61735" lon="1.19006">
        <ele>236</ele>
        <time>2019-12-05T08:26:35.576Z</time>
      </trkpt>
      <trkpt lat="43.61727" lon="1.18998">
        <ele>237</ele>
        <time>2019-12-05T08:26:43.312Z</time>
      </trkpt>
      <trkpt lat="43.61705" lon="1.18976">
        <ele>238</ele>
        <time>2019-12-05T08:27:04.158Z</time>
      </trkpt>
      <trkpt lat="43.61685" lon="1.18941">
        <ele>240</ele>
        <time>2019-12-05T08:27:28.969Z</time>
      </trkpt>
      <trkpt lat="43.61682" lon="1.18933">
        <ele>240</ele>
        <time>2019-12-05T08:27:33.847Z</time>
      </trkpt>
      <trkpt lat="43.61677" lon="1.1892">
        <ele>241</ele>
        <time>2019-12-05T08:27:42.394Z</time>
      </trkpt>
      <trkpt lat="43.61665" lon="1.18883">
        <ele>241</ele>
        <time>2019-12-05T08:28:04.648Z</time>
      </trkpt>
      <trkpt lat="43.6166" lon="1.18871">
        <ele>241</ele>
        <time>2019-12-05T08:28:12.607Z</time>
      </trkpt>
      <trkpt lat="43.61655" lon="1.18859">
        <ele>242</ele>
        <time>2019-12-05T08:28:20.139Z</time>
      </trkpt>
      <trkpt lat="43.61651" lon="1.18847">
        <ele>242</ele>
        <time>2019-12-05T08:28:27.718Z</time>
      </trkpt>
      <trkpt lat="43.61648" lon="1.18834">
        <ele>242</ele>
        <time>2019-12-05T08:28:35.277Z</time>
      </trkpt>
      <trkpt lat="43.6165" lon="1.18821">
        <ele>242</ele>
        <time>2019-12-05T08:28:42.320Z</time>
      </trkpt>
      <trkpt lat="43.61653" lon="1.18808">
        <ele>242</ele>
        <time>2019-12-05T08:28:50.275Z</time>
      </trkpt>
      <trkpt lat="43.61653" lon="1.18794">
        <ele>242</ele>
        <time>2019-12-05T08:28:58.078Z</time>
      </trkpt>
      <trkpt lat="43.61658" lon="1.1878">
        <ele>243</ele>
        <time>2019-12-05T08:29:06.209Z</time>
      </trkpt>
      <trkpt lat="43.61663" lon="1.1877">
        <ele>243</ele>
        <time>2019-12-05T08:29:13.477Z</time>
      </trkpt>
      <trkpt lat="43.61666" lon="1.18758">
        <ele>243</ele>
        <time>2019-12-05T08:29:20.552Z</time>
      </trkpt>
      <trkpt lat="43.61671" lon="1.18746">
        <ele>243</ele>
        <time>2019-12-05T08:29:28.034Z</time>
      </trkpt>
      <trkpt lat="43.61676" lon="1.18736">
        <ele>244</ele>
        <time>2019-12-05T08:29:35.078Z</time>
      </trkpt>
      <trkpt lat="43.61684" lon="1.18728">
        <ele>244</ele>
        <time>2019-12-05T08:29:42.299Z</time>
      </trkpt>
      <trkpt lat="43.61688" lon="1.18715">
        <ele>245</ele>
        <time>2019-12-05T08:29:50.112Z</time>
      </trkpt>
      <trkpt lat="43.61694" lon="1.18705">
        <ele>245</ele>
        <time>2019-12-05T08:29:57.707Z</time>
      </trkpt>
      <trkpt lat="43.61703" lon="1.18699">
        <ele>245</ele>
        <time>2019-12-05T08:30:05.072Z</time>
      </trkpt>
      <trkpt lat="43.6171" lon="1.1869">
        <ele>245</ele>
        <time>2019-12-05T08:30:12.760Z</time>
      </trkpt>
      <trkpt lat="43.61715" lon="1.18679">
        <ele>245</ele>
        <time>2019-12-05T08:30:19.722Z</time>
      </trkpt>
      <trkpt lat="43.61721" lon="1.18669">
        <ele>245</ele>
        <time>2019-12-05T08:30:26.950Z</time>
      </trkpt>
      <trkpt lat="43.61727" lon="1.1866">
        <ele>245</ele>
        <time>2019-12-05T08:30:33.879Z</time>
      </trkpt>
      <trkpt lat="43.61734" lon="1.18651">
        <ele>245</ele>
        <time>2019-12-05T08:30:41.433Z</time>
      </trkpt>
      <trkpt lat="43.61743" lon="1.1863">
        <ele>245</ele>
        <time>2019-12-05T08:30:54.551Z</time>
      </trkpt>
      <trkpt lat="43.61744" lon="1.18583">
        <ele>245</ele>
        <time>2019-12-05T08:31:21.160Z</time>
      </trkpt>
      <trkpt lat="43.61736" lon="1.18557">
        <ele>246</ele>
        <time>2019-12-05T08:31:36.907Z</time>
      </trkpt>
      <trkpt lat="43.61743" lon="1.18542">
        <ele>246</ele>
        <time>2019-12-05T08:31:47.113Z</time>
      </trkpt>
      <trkpt lat="43.61749" lon="1.18533">
        <ele>245</ele>
        <time>2019-12-05T08:31:54.055Z</time>
      </trkpt>
      <trkpt lat="43.61756" lon="1.18524">
        <ele>244</ele>
        <time>2019-12-05T08:32:01.121Z</time>
      </trkpt>
      <trkpt lat="43.61774" lon="1.18519">
        <ele>243</ele>
        <time>2019-12-05T08:32:15.313Z</time>
      </trkpt>
      <trkpt lat="43.61782" lon="1.18524">
        <ele>242</ele>
        <time>2019-12-05T08:32:21.980Z</time>
      </trkpt>
      <trkpt lat="43.61817" lon="1.18595">
        <ele>240</ele>
        <time>2019-12-05T08:33:10.067Z</time>
      </trkpt>
      <trkpt lat="43.61829" lon="1.18586">
        <ele>239</ele>
        <time>2019-12-05T08:33:20.026Z</time>
      </trkpt>
      <trkpt lat="43.61838" lon="1.18582">
        <ele>237</ele>
        <time>2019-12-05T08:33:27.193Z</time>
      </trkpt>
      <trkpt lat="43.61856" lon="1.18559">
        <ele>234</ele>
        <time>2019-12-05T08:33:46.296Z</time>
      </trkpt>
      <trkpt lat="43.61858" lon="1.18544">
        <ele>233</ele>
        <time>2019-12-05T08:33:54.920Z</time>
      </trkpt>
      <trkpt lat="43.61837" lon="1.18508">
        <ele>234</ele>
        <time>2019-12-05T08:34:20.672Z</time>
      </trkpt>
      <trkpt lat="43.61833" lon="1.18474">
        <ele>235</ele>
        <time>2019-12-05T08:34:39.907Z</time>
      </trkpt>
      <trkpt lat="43.61826" lon="1.18465">
        <ele>235</ele>
        <time>2019-12-05T08:34:47.042Z</time>
      </trkpt>
      <trkpt lat="43.61819" lon="1.18456">
        <ele>235</ele>
        <time>2019-12-05T08:34:54.442Z</time>
      </trkpt>
      <trkpt lat="43.61812" lon="1.18448">
        <ele>235</ele>
        <time>2019-12-05T08:35:01.703Z</time>
      </trkpt>
      <trkpt lat="43.61804" lon="1.1844">
        <ele>235</ele>
        <time>2019-12-05T08:35:08.869Z</time>
      </trkpt>
      <trkpt lat="43.61795" lon="1.18436">
        <ele>235</ele>
        <time>2019-12-05T08:35:16.310Z</time>
      </trkpt>
      <trkpt lat="43.61788" lon="1.18426">
        <ele>235</ele>
        <time>2019-12-05T08:35:24.144Z</time>
      </trkpt>
      <trkpt lat="43.61779" lon="1.18419">
        <ele>235</ele>
        <time>2019-12-05T08:35:31.754Z</time>
      </trkpt>
      <trkpt lat="43.61762" lon="1.18406">
        <ele>236</ele>
        <time>2019-12-05T08:35:47.307Z</time>
      </trkpt>
      <trkpt lat="43.61751" lon="1.18385">
        <ele>235</ele>
        <time>2019-12-05T08:36:01.482Z</time>
      </trkpt>
      <trkpt lat="43.61744" lon="1.18376">
        <ele>235</ele>
        <time>2019-12-05T08:36:08.676Z</time>
      </trkpt>
      <trkpt lat="43.61736" lon="1.18368">
        <ele>236</ele>
        <time>2019-12-05T08:36:16.027Z</time>
      </trkpt>
      <trkpt lat="43.6173" lon="1.18357">
        <ele>236</ele>
        <time>2019-12-05T08:36:23.940Z</time>
      </trkpt>
      <trkpt lat="43.61718" lon="1.18344">
        <ele>236</ele>
        <time>2019-12-05T08:36:35.734Z</time>
      </trkpt>
      <trkpt lat="43.6171" lon="1.18329">
        <ele>237</ele>
        <time>2019-12-05T08:36:45.982Z</time>
      </trkpt>
      <trkpt lat="43.61698" lon="1.1829">
        <ele>239</ele>
        <time>2019-12-05T08:37:10.091Z</time>
      </trkpt>
      <trkpt lat="43.61697" lon="1.18277">
        <ele>239</ele>
        <time>2019-12-05T08:37:17.189Z</time>
      </trkpt>
      <trkpt lat="43.61697" lon="1.18263">
        <ele>239</ele>
        <time>2019-12-05T08:37:25.160Z</time>
      </trkpt>
      <trkpt lat="43.61686" lon="1.18237">
        <ele>239</ele>
        <time>2019-12-05T08:37:42.093Z</time>
      </trkpt>
      <trkpt lat="43.61673" lon="1.18216">
        <ele>239</ele>
        <time>2019-12-05T08:37:57.550Z</time>
      </trkpt>
      <trkpt lat="43.61667" lon="1.18206">
        <ele>239</ele>
        <time>2019-12-05T08:38:04.433Z</time>
      </trkpt>
      <trkpt lat="43.61655" lon="1.18182">
        <ele>239</ele>
        <time>2019-12-05T08:38:20.599Z</time>
      </trkpt>
      <trkpt lat="43.61649" lon="1.18176">
        <ele>240</ele>
        <time>2019-12-05T08:38:26.302Z</time>
      </trkpt>
      <trkpt lat="43.61643" lon="1.18168">
        <ele>240</ele>
        <time>2019-12-05T08:38:32.833Z</time>
      </trkpt>
      <trkpt lat="43.61635" lon="1.18159">
        <ele>240</ele>
        <time>2019-12-05T08:38:40.729Z</time>
      </trkpt>
      <trkpt lat="43.61628" lon="1.18149">
        <ele>240</ele>
        <time>2019-12-05T08:38:48.550Z</time>
      </trkpt>
      <trkpt lat="43.61623" lon="1.18142">
        <ele>240</ele>
        <time>2019-12-05T08:38:54.138Z</time>
      </trkpt>
      <trkpt lat="43.61619" lon="1.18139">
        <ele>240</ele>
        <time>2019-12-05T08:38:57.753Z</time>
      </trkpt>
      <trkpt lat="43.61609" lon="1.18138">
        <ele>240</ele>
        <time>2019-12-05T08:39:05.087Z</time>
      </trkpt>
      <trkpt lat="43.61599" lon="1.18137">
        <ele>240</ele>
        <time>2019-12-05T08:39:12.798Z</time>
      </trkpt>
      <trkpt lat="43.61588" lon="1.18132">
        <ele>240</ele>
        <time>2019-12-05T08:39:21.476Z</time>
      </trkpt>
      <trkpt lat="43.61577" lon="1.18118">
        <ele>240</ele>
        <time>2019-12-05T08:39:33.237Z</time>
      </trkpt>
      <trkpt lat="43.6156" lon="1.18093">
        <ele>240</ele>
        <time>2019-12-05T08:39:52.325Z</time>
      </trkpt>
      <trkpt lat="43.61547" lon="1.1809">
        <ele>240</ele>
        <time>2019-12-05T08:40:02.672Z</time>
      </trkpt>
      <trkpt lat="43.61538" lon="1.18074">
        <ele>240</ele>
        <time>2019-12-05T08:40:13.877Z</time>
      </trkpt>
      <trkpt lat="43.61528" lon="1.18059">
        <ele>240</ele>
        <time>2019-12-05T08:40:25.111Z</time>
      </trkpt>
      <trkpt lat="43.61524" lon="1.18057">
        <ele>240</ele>
        <time>2019-12-05T08:40:28.662Z</time>
      </trkpt>
      <trkpt lat="43.61493" lon="1.18053">
        <ele>240</ele>
        <time>2019-12-05T08:40:52.045Z</time>
      </trkpt>
      <trkpt lat="43.61489" lon="1.18056">
        <ele>240</ele>
        <time>2019-12-05T08:40:55.964Z</time>
      </trkpt>
      <trkpt lat="43.61479" lon="1.1806">
        <ele>240</ele>
        <time>2019-12-05T08:41:03.841Z</time>
      </trkpt>
      <trkpt lat="43.61473" lon="1.1805">
        <ele>240</ele>
        <time>2019-12-05T08:41:10.976Z</time>
      </trkpt>
      <trkpt lat="43.61468" lon="1.1804">
        <ele>240</ele>
        <time>2019-12-05T08:41:18.340Z</time>
      </trkpt>
      <trkpt lat="43.61462" lon="1.18027">
        <ele>240</ele>
        <time>2019-12-05T08:41:26.485Z</time>
      </trkpt>
      <trkpt lat="43.61457" lon="1.18013">
        <ele>240</ele>
        <time>2019-12-05T08:41:35.179Z</time>
      </trkpt>
      <trkpt lat="43.61452" lon="1.18004">
        <ele>240</ele>
        <time>2019-12-05T08:41:41.321Z</time>
      </trkpt>
      <trkpt lat="43.61433" lon="1.17986">
        <ele>240</ele>
        <time>2019-12-05T08:41:59.028Z</time>
      </trkpt>
      <trkpt lat="43.61419" lon="1.17968">
        <ele>240</ele>
        <time>2019-12-05T08:42:13.922Z</time>
      </trkpt>
      <trkpt lat="43.6141" lon="1.17961">
        <ele>240</ele>
        <time>2019-12-05T08:42:21.578Z</time>
      </trkpt>
      <trkpt lat="43.61403" lon="1.17956">
        <ele>240</ele>
        <time>2019-12-05T08:42:27.535Z</time>
      </trkpt>
      <trkpt lat="43.61393" lon="1.17956">
        <ele>240</ele>
        <time>2019-12-05T08:42:35.546Z</time>
      </trkpt>
      <trkpt lat="43.61381" lon="1.17956">
        <ele>241</ele>
        <time>2019-12-05T08:42:44.711Z</time>
      </trkpt>
      <trkpt lat="43.61351" lon="1.17904">
        <ele>241</ele>
        <time>2019-12-05T08:43:21.914Z</time>
      </trkpt>
      <trkpt lat="43.61341" lon="1.17897">
        <ele>241</ele>
        <time>2019-12-05T08:43:30.203Z</time>
      </trkpt>
      <trkpt lat="43.61315" lon="1.1788">
        <ele>243</ele>
        <time>2019-12-05T08:43:52.324Z</time>
      </trkpt>
      <trkpt lat="43.61306" lon="1.17856">
        <ele>244</ele>
        <time>2019-12-05T08:44:07.692Z</time>
      </trkpt>
      <trkpt lat="43.613" lon="1.1784">
        <ele>244</ele>
        <time>2019-12-05T08:44:17.820Z</time>
      </trkpt>
      <trkpt lat="43.61293" lon="1.17824">
        <ele>244</ele>
        <time>2019-12-05T08:44:28.315Z</time>
      </trkpt>
      <trkpt lat="43.61288" lon="1.17817">
        <ele>244</ele>
        <time>2019-12-05T08:44:33.620Z</time>
      </trkpt>
      <trkpt lat="43.61281" lon="1.17809">
        <ele>244</ele>
        <time>2019-12-05T08:44:40.533Z</time>
      </trkpt>
      <trkpt lat="43.61274" lon="1.17802">
        <ele>244</ele>
        <time>2019-12-05T08:44:47.338Z</time>
      </trkpt>
      <trkpt lat="43.61268" lon="1.17793">
        <ele>244</ele>
        <time>2019-12-05T08:44:54.096Z</time>
      </trkpt>
      <trkpt lat="43.61257" lon="1.1778">
        <ele>245</ele>
        <time>2019-12-05T08:45:05.228Z</time>
      </trkpt>
      <trkpt lat="43.61247" lon="1.17768">
        <ele>245</ele>
        <time>2019-12-05T08:45:15.290Z</time>
      </trkpt>
      <trkpt lat="43.61236" lon="1.17756">
        <ele>245</ele>
        <time>2019-12-05T08:45:26.055Z</time>
      </trkpt>
      <trkpt lat="43.61233" lon="1.17745">
        <ele>245</ele>
        <time>2019-12-05T08:45:32.685Z</time>
      </trkpt>
      <trkpt lat="43.61231" lon="1.17726">
        <ele>245</ele>
        <time>2019-12-05T08:45:43.532Z</time>
      </trkpt>
      <trkpt lat="43.61226" lon="1.17702">
        <ele>245</ele>
        <time>2019-12-05T08:45:57.134Z</time>
      </trkpt>
      <trkpt lat="43.61215" lon="1.17689">
        <ele>245</ele>
        <time>2019-12-05T08:46:08.550Z</time>
      </trkpt>
      <trkpt lat="43.61189" lon="1.17658">
        <ele>245</ele>
        <time>2019-12-05T08:46:35.028Z</time>
      </trkpt>
      <trkpt lat="43.61176" lon="1.17641">
        <ele>245</ele>
        <time>2019-12-05T08:46:48.377Z</time>
      </trkpt>
      <trkpt lat="43.61166" lon="1.17619">
        <ele>245</ele>
        <time>2019-12-05T08:47:02.957Z</time>
      </trkpt>
      <trkpt lat="43.61161" lon="1.17605">
        <ele>245</ele>
        <time>2019-12-05T08:47:12.044Z</time>
      </trkpt>
      <trkpt lat="43.61154" lon="1.17597">
        <ele>245</ele>
        <time>2019-12-05T08:47:18.316Z</time>
      </trkpt>
      <trkpt lat="43.61143" lon="1.17586">
        <ele>245</ele>
        <time>2019-12-05T08:47:29.345Z</time>
      </trkpt>
      <trkpt lat="43.61138" lon="1.17579">
        <ele>245</ele>
        <time>2019-12-05T08:47:34.593Z</time>
      </trkpt>
      <trkpt lat="43.61133" lon="1.17577">
        <ele>245</ele>
        <time>2019-12-05T08:47:38.398Z</time>
      </trkpt>
      <trkpt lat="43.61124" lon="1.17574">
        <ele>245</ele>
        <time>2019-12-05T08:47:45.662Z</time>
      </trkpt>
      <trkpt lat="43.61114" lon="1.1757">
        <ele>245</ele>
        <time>2019-12-05T08:47:53.409Z</time>
      </trkpt>
      <trkpt lat="43.61109" lon="1.17564">
        <ele>245</ele>
        <time>2019-12-05T08:47:58.770Z</time>
      </trkpt>
      <trkpt lat="43.61102" lon="1.17554">
        <ele>246</ele>
        <time>2019-12-05T08:48:06.312Z</time>
      </trkpt>
      <trkpt lat="43.61099" lon="1.17547">
        <ele>247</ele>
        <time>2019-12-05T08:48:11.189Z</time>
      </trkpt>
      <trkpt lat="43.61094" lon="1.17532">
        <ele>247</ele>
        <time>2019-12-05T08:48:20.181Z</time>
      </trkpt>
      <trkpt lat="43.6109" lon="1.17522">
        <ele>248</ele>
        <time>2019-12-05T08:48:26.830Z</time>
      </trkpt>
      <trkpt lat="43.61086" lon="1.17508">
        <ele>249</ele>
        <time>2019-12-05T08:48:34.847Z</time>
      </trkpt>
      <trkpt lat="43.6108" lon="1.17495">
        <ele>249</ele>
        <time>2019-12-05T08:48:43.794Z</time>
      </trkpt>
      <trkpt lat="43.61072" lon="1.17487">
        <ele>250</ele>
        <time>2019-12-05T08:48:50.838Z</time>
      </trkpt>
      <trkpt lat="43.61056" lon="1.17485">
        <ele>250</ele>
        <time>2019-12-05T08:49:03.599Z</time>
      </trkpt>
      <trkpt lat="43.61046" lon="1.17469">
        <ele>250</ele>
        <time>2019-12-05T08:49:15.532Z</time>
      </trkpt>
      <trkpt lat="43.61034" lon="1.17453">
        <ele>250</ele>
        <time>2019-12-05T08:49:28.084Z</time>
      </trkpt>
      <trkpt lat="43.61027" lon="1.17448">
        <ele>250</ele>
        <time>2019-12-05T08:49:33.913Z</time>
      </trkpt>
      <trkpt lat="43.61012" lon="1.17437">
        <ele>250</ele>
        <time>2019-12-05T08:49:47.465Z</time>
      </trkpt>
      <trkpt lat="43.60995" lon="1.17427">
        <ele>251</ele>
        <time>2019-12-05T08:50:01.777Z</time>
      </trkpt>
      <trkpt lat="43.60985" lon="1.17418">
        <ele>250</ele>
        <time>2019-12-05T08:50:11.000Z</time>
      </trkpt>
      <trkpt lat="43.60974" lon="1.17414">
        <ele>250</ele>
        <time>2019-12-05T08:50:19.166Z</time>
      </trkpt>
      <trkpt lat="43.60965" lon="1.17408">
        <ele>250</ele>
        <time>2019-12-05T08:50:26.975Z</time>
      </trkpt>
      <trkpt lat="43.60948" lon="1.17401">
        <ele>250</ele>
        <time>2019-12-05T08:50:40.493Z</time>
      </trkpt>
      <trkpt lat="43.6093" lon="1.17385">
        <ele>250</ele>
        <time>2019-12-05T08:50:57.084Z</time>
      </trkpt>
      <trkpt lat="43.60914" lon="1.17375">
        <ele>250</ele>
        <time>2019-12-05T08:51:10.440Z</time>
      </trkpt>
      <trkpt lat="43.60903" lon="1.17372">
        <ele>251</ele>
        <time>2019-12-05T08:51:19.471Z</time>
      </trkpt>
      <trkpt lat="43.60896" lon="1.17367">
        <ele>251</ele>
        <time>2019-12-05T08:51:25.650Z</time>
      </trkpt>
      <trkpt lat="43.60887" lon="1.17362">
        <ele>251</ele>
        <time>2019-12-05T08:51:32.829Z</time>
      </trkpt>
      <trkpt lat="43.60878" lon="1.1736">
        <ele>252</ele>
        <time>2019-12-05T08:51:40.120Z</time>
      </trkpt>
      <trkpt lat="43.60872" lon="1.17361">
        <ele>253</ele>
        <time>2019-12-05T08:51:44.747Z</time>
      </trkpt>
      <trkpt lat="43.60873" lon="1.17355">
        <ele>253</ele>
        <time>2019-12-05T08:51:48.259Z</time>
      </trkpt>
      <trkpt lat="43.60873" lon="1.17345">
        <ele>253</ele>
        <time>2019-12-05T08:51:53.701Z</time>
      </trkpt>
      <trkpt lat="43.60874" lon="1.17337">
        <ele>253</ele>
        <time>2019-12-05T08:51:58.061Z</time>
      </trkpt>
      <trkpt lat="43.60875" lon="1.17329">
        <ele>254</ele>
        <time>2019-12-05T08:52:02.807Z</time>
      </trkpt>
      <trkpt lat="43.60876" lon="1.17313">
        <ele>255</ele>
        <time>2019-12-05T08:52:11.675Z</time>
      </trkpt>
      <trkpt lat="43.60881" lon="1.17301">
        <ele>256</ele>
        <time>2019-12-05T08:52:19.280Z</time>
      </trkpt>
      <trkpt lat="43.60882" lon="1.17289">
        <ele>256</ele>
        <time>2019-12-05T08:52:26.198Z</time>
      </trkpt>
      <trkpt lat="43.60883" lon="1.17277">
        <ele>257</ele>
        <time>2019-12-05T08:52:33.217Z</time>
      </trkpt>
      <trkpt lat="43.60886" lon="1.17263">
        <ele>257</ele>
        <time>2019-12-05T08:52:41.289Z</time>
      </trkpt>
      <trkpt lat="43.60886" lon="1.1725">
        <ele>258</ele>
        <time>2019-12-05T08:52:48.542Z</time>
      </trkpt>
      <trkpt lat="43.60884" lon="1.17237">
        <ele>259</ele>
        <time>2019-12-05T08:52:56.004Z</time>
      </trkpt>
      <trkpt lat="43.6088" lon="1.17224">
        <ele>260</ele>
        <time>2019-12-05T08:53:03.664Z</time>
      </trkpt>
      <trkpt lat="43.60874" lon="1.17214">
        <ele>260</ele>
        <time>2019-12-05T08:53:10.846Z</time>
      </trkpt>
      <trkpt lat="43.60866" lon="1.1721">
        <ele>261</ele>
        <time>2019-12-05T08:53:17.797Z</time>
      </trkpt>
      <trkpt lat="43.60857" lon="1.1721">
        <ele>262</ele>
        <time>2019-12-05T08:53:24.881Z</time>
      </trkpt>
      <trkpt lat="43.60848" lon="1.17206">
        <ele>262</ele>
        <time>2019-12-05T08:53:31.976Z</time>
      </trkpt>
      <trkpt lat="43.60841" lon="1.17198">
        <ele>263</ele>
        <time>2019-12-05T08:53:39.030Z</time>
      </trkpt>
      <trkpt lat="43.60832" lon="1.17194">
        <ele>263</ele>
        <time>2019-12-05T08:53:46.006Z</time>
      </trkpt>
      <trkpt lat="43.60823" lon="1.17189">
        <ele>264</ele>
        <time>2019-12-05T08:53:53.326Z</time>
      </trkpt>
      <trkpt lat="43.60815" lon="1.17183">
        <ele>265</ele>
        <time>2019-12-05T08:54:00.402Z</time>
      </trkpt>
      <trkpt lat="43.60806" lon="1.17178">
        <ele>266</ele>
        <time>2019-12-05T08:54:08.013Z</time>
      </trkpt>
      <trkpt lat="43.60798" lon="1.17172">
        <ele>266</ele>
        <time>2019-12-05T08:54:15.336Z</time>
      </trkpt>
      <trkpt lat="43.60788" lon="1.17167">
        <ele>267</ele>
        <time>2019-12-05T08:54:22.868Z</time>
      </trkpt>
      <trkpt lat="43.60778" lon="1.17166">
        <ele>267</ele>
        <time>2019-12-05T08:54:30.659Z</time>
      </trkpt>
      <trkpt lat="43.60769" lon="1.17162">
        <ele>266</ele>
        <time>2019-12-05T08:54:37.917Z</time>
      </trkpt>
      <trkpt lat="43.60764" lon="1.17152">
        <ele>266</ele>
        <time>2019-12-05T08:54:44.828Z</time>
      </trkpt>
      <trkpt lat="43.60759" lon="1.17141">
        <ele>266</ele>
        <time>2019-12-05T08:54:51.860Z</time>
      </trkpt>
      <trkpt lat="43.60754" lon="1.17129">
        <ele>267</ele>
        <time>2019-12-05T08:54:59.626Z</time>
      </trkpt>
      <trkpt lat="43.6075" lon="1.17118">
        <ele>267</ele>
        <time>2019-12-05T08:55:06.587Z</time>
      </trkpt>
      <trkpt lat="43.60751" lon="1.17105">
        <ele>267</ele>
        <time>2019-12-05T08:55:13.948Z</time>
      </trkpt>
      <trkpt lat="43.60743" lon="1.17096">
        <ele>267</ele>
        <time>2019-12-05T08:55:21.452Z</time>
      </trkpt>
      <trkpt lat="43.60734" lon="1.17098">
        <ele>267</ele>
        <time>2019-12-05T08:55:28.583Z</time>
      </trkpt>
      <trkpt lat="43.60726" lon="1.17105">
        <ele>266</ele>
        <time>2019-12-05T08:55:35.774Z</time>
      </trkpt>
      <trkpt lat="43.60717" lon="1.17108">
        <ele>265</ele>
        <time>2019-12-05T08:55:43.154Z</time>
      </trkpt>
      <trkpt lat="43.60707" lon="1.17111">
        <ele>264</ele>
        <time>2019-12-05T08:55:50.723Z</time>
      </trkpt>
      <trkpt lat="43.60699" lon="1.17107">
        <ele>264</ele>
        <time>2019-12-05T08:55:57.966Z</time>
      </trkpt>
      <trkpt lat="43.60694" lon="1.17095">
        <ele>265</ele>
        <time>2019-12-05T08:56:05.365Z</time>
      </trkpt>
      <trkpt lat="43.6069" lon="1.17083">
        <ele>265</ele>
        <time>2019-12-05T08:56:12.983Z</time>
      </trkpt>
      <trkpt lat="43.60687" lon="1.1707">
        <ele>265</ele>
        <time>2019-12-05T08:56:20.695Z</time>
      </trkpt>
      <trkpt lat="43.60683" lon="1.17057">
        <ele>265</ele>
        <time>2019-12-05T08:56:28.010Z</time>
      </trkpt>
      <trkpt lat="43.60678" lon="1.17046">
        <ele>264</ele>
        <time>2019-12-05T08:56:35.710Z</time>
      </trkpt>
      <trkpt lat="43.60673" lon="1.17034">
        <ele>264</ele>
        <time>2019-12-05T08:56:43.532Z</time>
      </trkpt>
      <trkpt lat="43.60669" lon="1.17021">
        <ele>264</ele>
        <time>2019-12-05T08:56:51.266Z</time>
      </trkpt>
      <trkpt lat="43.60665" lon="1.17008">
        <ele>265</ele>
        <time>2019-12-05T08:56:59.181Z</time>
      </trkpt>
      <trkpt lat="43.60662" lon="1.16995">
        <ele>265</ele>
        <time>2019-12-05T08:57:06.363Z</time>
      </trkpt>
      <trkpt lat="43.60659" lon="1.16983">
        <ele>265</ele>
        <time>2019-12-05T08:57:13.753Z</time>
      </trkpt>
      <trkpt lat="43.6066" lon="1.1697">
        <ele>266</ele>
        <time>2019-12-05T08:57:20.958Z</time>
      </trkpt>
      <trkpt lat="43.60659" lon="1.16956">
        <ele>266</ele>
        <time>2019-12-05T08:57:28.693Z</time>
      </trkpt>
      <trkpt lat="43.60654" lon="1.16944">
        <ele>266</ele>
        <time>2019-12-05T08:57:36.275Z</time>
      </trkpt>
      <trkpt lat="43.60652" lon="1.16931">
        <ele>266</ele>
        <time>2019-12-05T08:57:44.189Z</time>
      </trkpt>
      <trkpt lat="43.60646" lon="1.1692">
        <ele>266</ele>
        <time>2019-12-05T08:57:51.418Z</time>
      </trkpt>
      <trkpt lat="43.60643" lon="1.16906">
        <ele>266</ele>
        <time>2019-12-05T08:57:59.360Z</time>
      </trkpt>
      <trkpt lat="43.60638" lon="1.16894">
        <ele>266</ele>
        <time>2019-12-05T08:58:07.229Z</time>
      </trkpt>
      <trkpt lat="43.60633" lon="1.16881">
        <ele>266</ele>
        <time>2019-12-05T08:58:15.215Z</time>
      </trkpt>
      <trkpt lat="43.60628" lon="1.1687">
        <ele>266</ele>
        <time>2019-12-05T08:58:22.894Z</time>
      </trkpt>
      <trkpt lat="43.6062" lon="1.16861">
        <ele>266</ele>
        <time>2019-12-05T08:58:30.482Z</time>
      </trkpt>
      <trkpt lat="43.60613" lon="1.16853">
        <ele>265</ele>
        <time>2019-12-05T08:58:37.832Z</time>
      </trkpt>
      <trkpt lat="43.60609" lon="1.16841">
        <ele>266</ele>
        <time>2019-12-05T08:58:45.312Z</time>
      </trkpt>
      <trkpt lat="43.60603" lon="1.16831">
        <ele>266</ele>
        <time>2019-12-05T08:58:52.454Z</time>
      </trkpt>
      <trkpt lat="43.60599" lon="1.16819">
        <ele>266</ele>
        <time>2019-12-05T08:58:59.888Z</time>
      </trkpt>
      <trkpt lat="43.60594" lon="1.16808">
        <ele>266</ele>
        <time>2019-12-05T08:59:07.114Z</time>
      </trkpt>
      <trkpt lat="43.60592" lon="1.16795">
        <ele>266</ele>
        <time>2019-12-05T08:59:14.577Z</time>
      </trkpt>
      <trkpt lat="43.60588" lon="1.16782">
        <ele>266</ele>
        <time>2019-12-05T08:59:22.256Z</time>
      </trkpt>
      <trkpt lat="43.60584" lon="1.1677">
        <ele>266</ele>
        <time>2019-12-05T08:59:29.620Z</time>
      </trkpt>
      <trkpt lat="43.60583" lon="1.16756">
        <ele>267</ele>
        <time>2019-12-05T08:59:37.377Z</time>
      </trkpt>
      <trkpt lat="43.60577" lon="1.16747">
        <ele>267</ele>
        <time>2019-12-05T08:59:44.142Z</time>
      </trkpt>
      <trkpt lat="43.60591" lon="1.16717">
        <ele>269</ele>
        <time>2019-12-05T09:00:04.438Z</time>
      </trkpt>
      <trkpt lat="43.60585" lon="1.16707">
        <ele>269</ele>
        <time>2019-12-05T09:00:11.305Z</time>
      </trkpt>
      <trkpt lat="43.60579" lon="1.16709">
        <ele>269</ele>
        <time>2019-12-05T09:00:16.463Z</time>
      </trkpt>
      <trkpt lat="43.60575" lon="1.16715">
        <ele>268</ele>
        <time>2019-12-05T09:00:21.330Z</time>
      </trkpt>
      <trkpt lat="43.60568" lon="1.16724">
        <ele>267</ele>
        <time>2019-12-05T09:00:28.228Z</time>
      </trkpt>
      <trkpt lat="43.60566" lon="1.16736">
        <ele>266</ele>
        <time>2019-12-05T09:00:35.188Z</time>
      </trkpt>
      <trkpt lat="43.60547" lon="1.16752">
        <ele>265</ele>
        <time>2019-12-05T09:00:52.299Z</time>
      </trkpt>
      <trkpt lat="43.60533" lon="1.1675">
        <ele>265</ele>
        <time>2019-12-05T09:01:03.195Z</time>
      </trkpt>
      <trkpt lat="43.60525" lon="1.16742">
        <ele>265</ele>
        <time>2019-12-05T09:01:10.309Z</time>
      </trkpt>
      <trkpt lat="43.60519" lon="1.16732">
        <ele>265</ele>
        <time>2019-12-05T09:01:17.729Z</time>
      </trkpt>
      <trkpt lat="43.60512" lon="1.16722">
        <ele>265</ele>
        <time>2019-12-05T09:01:25.557Z</time>
      </trkpt>
      <trkpt lat="43.60505" lon="1.16714">
        <ele>265</ele>
        <time>2019-12-05T09:01:32.751Z</time>
      </trkpt>
      <trkpt lat="43.60501" lon="1.16701">
        <ele>266</ele>
        <time>2019-12-05T09:01:40.330Z</time>
      </trkpt>
      <trkpt lat="43.60495" lon="1.16691">
        <ele>266</ele>
        <time>2019-12-05T09:01:47.779Z</time>
      </trkpt>
      <trkpt lat="43.60485" lon="1.16687">
        <ele>267</ele>
        <time>2019-12-05T09:01:55.529Z</time>
      </trkpt>
      <trkpt lat="43.60479" lon="1.16676">
        <ele>268</ele>
        <time>2019-12-05T09:02:02.844Z</time>
      </trkpt>
      <trkpt lat="43.60471" lon="1.16668">
        <ele>268</ele>
        <time>2019-12-05T09:02:10.826Z</time>
      </trkpt>
      <trkpt lat="43.60464" lon="1.16659">
        <ele>268</ele>
        <time>2019-12-05T09:02:18.265Z</time>
      </trkpt>
      <trkpt lat="43.60455" lon="1.16652">
        <ele>269</ele>
        <time>2019-12-05T09:02:25.876Z</time>
      </trkpt>
      <trkpt lat="43.60447" lon="1.16646">
        <ele>269</ele>
        <time>2019-12-05T09:02:33.302Z</time>
      </trkpt>
      <trkpt lat="43.60438" lon="1.16641">
        <ele>269</ele>
        <time>2019-12-05T09:02:40.615Z</time>
      </trkpt>
      <trkpt lat="43.60427" lon="1.16641">
        <ele>270</ele>
        <time>2019-12-05T09:02:49.318Z</time>
      </trkpt>
      <trkpt lat="43.60418" lon="1.16636">
        <ele>270</ele>
        <time>2019-12-05T09:02:56.686Z</time>
      </trkpt>
      <trkpt lat="43.60412" lon="1.16613">
        <ele>270</ele>
        <time>2019-12-05T09:03:10.566Z</time>
      </trkpt>
      <trkpt lat="43.60404" lon="1.16584">
        <ele>270</ele>
        <time>2019-12-05T09:03:27.719Z</time>
      </trkpt>
      <trkpt lat="43.60393" lon="1.16532">
        <ele>270</ele>
        <time>2019-12-05T09:03:57.757Z</time>
      </trkpt>
      <trkpt lat="43.60378" lon="1.16456">
        <ele>272</ele>
        <time>2019-12-05T09:04:41.681Z</time>
      </trkpt>
      <trkpt lat="43.60366" lon="1.1644">
        <ele>273</ele>
        <time>2019-12-05T09:04:54.783Z</time>
      </trkpt>
      <trkpt lat="43.60358" lon="1.16438">
        <ele>273</ele>
        <time>2019-12-05T09:05:00.901Z</time>
      </trkpt>
      <trkpt lat="43.60346" lon="1.16444">
        <ele>274</ele>
        <time>2019-12-05T09:05:10.398Z</time>
      </trkpt>
      <trkpt lat="43.60331" lon="1.16454">
        <ele>274</ele>
        <time>2019-12-05T09:05:23.498Z</time>
      </trkpt>
      <trkpt lat="43.60322" lon="1.16456">
        <ele>275</ele>
        <time>2019-12-05T09:05:30.588Z</time>
      </trkpt>
      <trkpt lat="43.60313" lon="1.1646">
        <ele>275</ele>
        <time>2019-12-05T09:05:37.801Z</time>
      </trkpt>
      <trkpt lat="43.60303" lon="1.16466">
        <ele>275</ele>
        <time>2019-12-05T09:05:45.820Z</time>
      </trkpt>
      <trkpt lat="43.60295" lon="1.16471">
        <ele>276</ele>
        <time>2019-12-05T09:05:53.140Z</time>
      </trkpt>
      <trkpt lat="43.60285" lon="1.16474">
        <ele>277</ele>
        <time>2019-12-05T09:06:00.443Z</time>
      </trkpt>
      <trkpt lat="43.60276" lon="1.16478">
        <ele>278</ele>
        <time>2019-12-05T09:06:08.279Z</time>
      </trkpt>
      <trkpt lat="43.60266" lon="1.16484">
        <ele>278</ele>
        <time>2019-12-05T09:06:16.181Z</time>
      </trkpt>
      <trkpt lat="43.60258" lon="1.16491">
        <ele>278</ele>
        <time>2019-12-05T09:06:23.661Z</time>
      </trkpt>
      <trkpt lat="43.60249" lon="1.16497">
        <ele>278</ele>
        <time>2019-12-05T09:06:31.532Z</time>
      </trkpt>
      <trkpt lat="43.60235" lon="1.16502">
        <ele>280</ele>
        <time>2019-12-05T09:06:42.786Z</time>
      </trkpt>
      <trkpt lat="43.6022" lon="1.16509">
        <ele>281</ele>
        <time>2019-12-05T09:06:54.866Z</time>
      </trkpt>
      <trkpt lat="43.60211" lon="1.16514">
        <ele>281</ele>
        <time>2019-12-05T09:07:02.018Z</time>
      </trkpt>
      <trkpt lat="43.60202" lon="1.16519">
        <ele>282</ele>
        <time>2019-12-05T09:07:09.970Z</time>
      </trkpt>
      <trkpt lat="43.60183" lon="1.16529">
        <ele>282</ele>
        <time>2019-12-05T09:07:25.164Z</time>
      </trkpt>
      <trkpt lat="43.60147" lon="1.16547">
        <ele>284</ele>
        <time>2019-12-05T09:07:54.806Z</time>
      </trkpt>
      <trkpt lat="43.6013" lon="1.16557">
        <ele>285</ele>
        <time>2019-12-05T09:08:09.077Z</time>
      </trkpt>
      <trkpt lat="43.60118" lon="1.16561">
        <ele>285</ele>
        <time>2019-12-05T09:08:18.547Z</time>
      </trkpt>
      <trkpt lat="43.60116" lon="1.16547">
        <ele>285</ele>
        <time>2019-12-05T09:08:26.502Z</time>
      </trkpt>
      <trkpt lat="43.60114" lon="1.16533">
        <ele>285</ele>
        <time>2019-12-05T09:08:34.826Z</time>
      </trkpt>
      <trkpt lat="43.60113" lon="1.16477">
        <ele>286</ele>
        <time>2019-12-05T09:09:06.113Z</time>
      </trkpt>
      <trkpt lat="43.60104" lon="1.16452">
        <ele>286</ele>
        <time>2019-12-05T09:09:21.443Z</time>
      </trkpt>
      <trkpt lat="43.60099" lon="1.16447">
        <ele>286</ele>
        <time>2019-12-05T09:09:26.032Z</time>
      </trkpt>
      <trkpt lat="43.60097" lon="1.16456">
        <ele>285</ele>
        <time>2019-12-05T09:09:31.356Z</time>
      </trkpt>
      <trkpt lat="43.60091" lon="1.16473">
        <ele>285</ele>
        <time>2019-12-05T09:09:41.815Z</time>
      </trkpt>
      <trkpt lat="43.60089" lon="1.16485">
        <ele>285</ele>
        <time>2019-12-05T09:09:49.167Z</time>
      </trkpt>
      <trkpt lat="43.6009" lon="1.16499">
        <ele>285</ele>
        <time>2019-12-05T09:09:56.759Z</time>
      </trkpt>
      <trkpt lat="43.60089" lon="1.16511">
        <ele>285</ele>
        <time>2019-12-05T09:10:03.835Z</time>
      </trkpt>
      <trkpt lat="43.60085" lon="1.16525">
        <ele>285</ele>
        <time>2019-12-05T09:10:11.698Z</time>
      </trkpt>
      <trkpt lat="43.60082" lon="1.16535">
        <ele>285</ele>
        <time>2019-12-05T09:10:17.762Z</time>
      </trkpt>
      <trkpt lat="43.60079" lon="1.1655">
        <ele>285</ele>
        <time>2019-12-05T09:10:26.707Z</time>
      </trkpt>
      <trkpt lat="43.60072" lon="1.16572">
        <ele>285</ele>
        <time>2019-12-05T09:10:40.012Z</time>
      </trkpt>
      <trkpt lat="43.6007" lon="1.16585">
        <ele>285</ele>
        <time>2019-12-05T09:10:47.226Z</time>
      </trkpt>
      <trkpt lat="43.60067" lon="1.16596">
        <ele>285</ele>
        <time>2019-12-05T09:10:54.283Z</time>
      </trkpt>
      <trkpt lat="43.60061" lon="1.16608">
        <ele>285</ele>
        <time>2019-12-05T09:11:02.166Z</time>
      </trkpt>
      <trkpt lat="43.60057" lon="1.16622">
        <ele>285</ele>
        <time>2019-12-05T09:11:10.143Z</time>
      </trkpt>
      <trkpt lat="43.60055" lon="1.16635">
        <ele>285</ele>
        <time>2019-12-05T09:11:17.784Z</time>
      </trkpt>
      <trkpt lat="43.60048" lon="1.16653">
        <ele>285</ele>
        <time>2019-12-05T09:11:29.102Z</time>
      </trkpt>
      <trkpt lat="43.60031" lon="1.16679">
        <ele>285</ele>
        <time>2019-12-05T09:11:48.890Z</time>
      </trkpt>
      <trkpt lat="43.60028" lon="1.16688">
        <ele>285</ele>
        <time>2019-12-05T09:11:54.158Z</time>
      </trkpt>
      <trkpt lat="43.60023" lon="1.167">
        <ele>285</ele>
        <time>2019-12-05T09:12:01.886Z</time>
      </trkpt>
      <trkpt lat="43.60019" lon="1.16711">
        <ele>284</ele>
        <time>2019-12-05T09:12:09.141Z</time>
      </trkpt>
      <trkpt lat="43.60015" lon="1.16724">
        <ele>283</ele>
        <time>2019-12-05T09:12:16.824Z</time>
      </trkpt>
      <trkpt lat="43.6001" lon="1.16738">
        <ele>283</ele>
        <time>2019-12-05T09:12:25.760Z</time>
      </trkpt>
      <trkpt lat="43.60005" lon="1.1675">
        <ele>282</ele>
        <time>2019-12-05T09:12:33.343Z</time>
      </trkpt>
      <trkpt lat="43.59997" lon="1.16759">
        <ele>281</ele>
        <time>2019-12-05T09:12:40.942Z</time>
      </trkpt>
      <trkpt lat="43.59988" lon="1.16763">
        <ele>281</ele>
        <time>2019-12-05T09:12:48.258Z</time>
      </trkpt>
      <trkpt lat="43.59979" lon="1.16767">
        <ele>280</ele>
        <time>2019-12-05T09:12:55.604Z</time>
      </trkpt>
      <trkpt lat="43.5997" lon="1.16777">
        <ele>279</ele>
        <time>2019-12-05T09:13:04.705Z</time>
      </trkpt>
      <trkpt lat="43.59971" lon="1.1681">
        <ele>278</ele>
        <time>2019-12-05T09:13:23.143Z</time>
      </trkpt>
      <trkpt lat="43.5997" lon="1.16824">
        <ele>277</ele>
        <time>2019-12-05T09:13:30.901Z</time>
      </trkpt>
      <trkpt lat="43.59972" lon="1.16832">
        <ele>277</ele>
        <time>2019-12-05T09:13:35.967Z</time>
      </trkpt>
      <trkpt lat="43.59973" lon="1.16842">
        <ele>276</ele>
        <time>2019-12-05T09:13:41.505Z</time>
      </trkpt>
      <trkpt lat="43.59972" lon="1.16849">
        <ele>276</ele>
        <time>2019-12-05T09:13:45.522Z</time>
      </trkpt>
      <trkpt lat="43.59987" lon="1.16859">
        <ele>276</ele>
        <time>2019-12-05T09:13:58.203Z</time>
      </trkpt>
      <trkpt lat="43.6002" lon="1.16883">
        <ele>274</ele>
        <time>2019-12-05T09:14:26.334Z</time>
      </trkpt>
      <trkpt lat="43.6003" lon="1.16891">
        <ele>273</ele>
        <time>2019-12-05T09:14:35.795Z</time>
      </trkpt>
      <trkpt lat="43.60037" lon="1.16915">
        <ele>271</ele>
        <time>2019-12-05T09:14:50.270Z</time>
      </trkpt>
      <trkpt lat="43.60042" lon="1.16944">
        <ele>270</ele>
        <time>2019-12-05T09:15:06.772Z</time>
      </trkpt>
      <trkpt lat="43.60042" lon="1.16959">
        <ele>270</ele>
        <time>2019-12-05T09:15:15.134Z</time>
      </trkpt>
      <trkpt lat="43.60039" lon="1.16982">
        <ele>270</ele>
        <time>2019-12-05T09:15:28.454Z</time>
      </trkpt>
      <trkpt lat="43.60037" lon="1.16994">
        <ele>270</ele>
        <time>2019-12-05T09:15:34.998Z</time>
      </trkpt>
      <trkpt lat="43.6003" lon="1.17018">
        <ele>270</ele>
        <time>2019-12-05T09:15:49.473Z</time>
      </trkpt>
      <trkpt lat="43.60051" lon="1.17036">
        <ele>272</ele>
        <time>2019-12-05T09:16:09.018Z</time>
      </trkpt>
      <trkpt lat="43.60057" lon="1.17047">
        <ele>272</ele>
        <time>2019-12-05T09:16:16.242Z</time>
      </trkpt>
      <trkpt lat="43.60055" lon="1.1706">
        <ele>272</ele>
        <time>2019-12-05T09:16:24.059Z</time>
      </trkpt>
      <trkpt lat="43.60056" lon="1.17074">
        <ele>272</ele>
        <time>2019-12-05T09:16:31.458Z</time>
      </trkpt>
      <trkpt lat="43.60058" lon="1.17087">
        <ele>272</ele>
        <time>2019-12-05T09:16:38.822Z</time>
      </trkpt>
      <trkpt lat="43.6006" lon="1.17099">
        <ele>271</ele>
        <time>2019-12-05T09:16:46.213Z</time>
      </trkpt>
      <trkpt lat="43.60064" lon="1.17113">
        <ele>271</ele>
        <time>2019-12-05T09:16:54.207Z</time>
      </trkpt>
      <trkpt lat="43.60069" lon="1.17124">
        <ele>270</ele>
        <time>2019-12-05T09:17:01.843Z</time>
      </trkpt>
      <trkpt lat="43.60073" lon="1.17138">
        <ele>269</ele>
        <time>2019-12-05T09:17:09.814Z</time>
      </trkpt>
      <trkpt lat="43.60074" lon="1.17152">
        <ele>269</ele>
        <time>2019-12-05T09:17:18.018Z</time>
      </trkpt>
      <trkpt lat="43.60076" lon="1.17166">
        <ele>268</ele>
        <time>2019-12-05T09:17:26.021Z</time>
      </trkpt>
      <trkpt lat="43.60079" lon="1.1718">
        <ele>268</ele>
        <time>2019-12-05T09:17:33.893Z</time>
      </trkpt>
      <trkpt lat="43.60078" lon="1.17194">
        <ele>267</ele>
        <time>2019-12-05T09:17:41.651Z</time>
      </trkpt>
      <trkpt lat="43.60077" lon="1.17207">
        <ele>267</ele>
        <time>2019-12-05T09:17:49.013Z</time>
      </trkpt>
      <trkpt lat="43.60078" lon="1.17221">
        <ele>267</ele>
        <time>2019-12-05T09:17:56.842Z</time>
      </trkpt>
      <trkpt lat="43.60078" lon="1.17234">
        <ele>267</ele>
        <time>2019-12-05T09:18:04.099Z</time>
      </trkpt>
      <trkpt lat="43.60074" lon="1.17247">
        <ele>266</ele>
        <time>2019-12-05T09:18:11.811Z</time>
      </trkpt>
      <trkpt lat="43.60073" lon="1.1726">
        <ele>266</ele>
        <time>2019-12-05T09:18:19.265Z</time>
      </trkpt>
      <trkpt lat="43.60076" lon="1.17273">
        <ele>266</ele>
        <time>2019-12-05T09:18:27.024Z</time>
      </trkpt>
      <trkpt lat="43.60073" lon="1.17286">
        <ele>265</ele>
        <time>2019-12-05T09:18:34.839Z</time>
      </trkpt>
      <trkpt lat="43.60071" lon="1.17299">
        <ele>265</ele>
        <time>2019-12-05T09:18:42.255Z</time>
      </trkpt>
      <trkpt lat="43.60078" lon="1.17309">
        <ele>264</ele>
        <time>2019-12-05T09:18:49.871Z</time>
      </trkpt>
      <trkpt lat="43.60083" lon="1.1732">
        <ele>264</ele>
        <time>2019-12-05T09:18:56.991Z</time>
      </trkpt>
      <trkpt lat="43.60087" lon="1.17333">
        <ele>263</ele>
        <time>2019-12-05T09:19:04.624Z</time>
      </trkpt>
      <trkpt lat="43.60087" lon="1.17345">
        <ele>263</ele>
        <time>2019-12-05T09:19:11.763Z</time>
      </trkpt>
      <trkpt lat="43.60091" lon="1.17357">
        <ele>263</ele>
        <time>2019-12-05T09:19:19.077Z</time>
      </trkpt>
      <trkpt lat="43.60096" lon="1.1737">
        <ele>263</ele>
        <time>2019-12-05T09:19:27.077Z</time>
      </trkpt>
      <trkpt lat="43.60092" lon="1.17382">
        <ele>262</ele>
        <time>2019-12-05T09:19:34.245Z</time>
      </trkpt>
      <trkpt lat="43.60089" lon="1.17394">
        <ele>261</ele>
        <time>2019-12-05T09:19:41.322Z</time>
      </trkpt>
      <trkpt lat="43.60085" lon="1.17404">
        <ele>261</ele>
        <time>2019-12-05T09:19:48.244Z</time>
      </trkpt>
      <trkpt lat="43.60081" lon="1.17417">
        <ele>260</ele>
        <time>2019-12-05T09:19:55.923Z</time>
      </trkpt>
      <trkpt lat="43.60081" lon="1.17432">
        <ele>260</ele>
        <time>2019-12-05T09:20:04.235Z</time>
      </trkpt>
      <trkpt lat="43.60082" lon="1.17447">
        <ele>260</ele>
        <time>2019-12-05T09:20:12.410Z</time>
      </trkpt>
      <trkpt lat="43.60078" lon="1.17458">
        <ele>260</ele>
        <time>2019-12-05T09:20:19.394Z</time>
      </trkpt>
      <trkpt lat="43.60077" lon="1.17472">
        <ele>260</ele>
        <time>2019-12-05T09:20:26.785Z</time>
      </trkpt>
      <trkpt lat="43.60085" lon="1.17479">
        <ele>260</ele>
        <time>2019-12-05T09:20:33.851Z</time>
      </trkpt>
      <trkpt lat="43.60093" lon="1.17488">
        <ele>261</ele>
        <time>2019-12-05T09:20:42.079Z</time>
      </trkpt>
      <trkpt lat="43.60102" lon="1.17491">
        <ele>262</ele>
        <time>2019-12-05T09:20:49.267Z</time>
      </trkpt>
      <trkpt lat="43.60109" lon="1.175">
        <ele>264</ele>
        <time>2019-12-05T09:20:56.687Z</time>
      </trkpt>
      <trkpt lat="43.60117" lon="1.17509">
        <ele>265</ele>
        <time>2019-12-05T09:21:04.457Z</time>
      </trkpt>
      <trkpt lat="43.60126" lon="1.17514">
        <ele>266</ele>
        <time>2019-12-05T09:21:12.028Z</time>
      </trkpt>
      <trkpt lat="43.60134" lon="1.17522">
        <ele>268</ele>
        <time>2019-12-05T09:21:19.513Z</time>
      </trkpt>
      <trkpt lat="43.60141" lon="1.17529">
        <ele>269</ele>
        <time>2019-12-05T09:21:26.451Z</time>
      </trkpt>
      <trkpt lat="43.60151" lon="1.17533">
        <ele>270</ele>
        <time>2019-12-05T09:21:34.243Z</time>
      </trkpt>
      <trkpt lat="43.6016" lon="1.17539">
        <ele>271</ele>
        <time>2019-12-05T09:21:41.911Z</time>
      </trkpt>
      <trkpt lat="43.60168" lon="1.17546">
        <ele>272</ele>
        <time>2019-12-05T09:21:49.362Z</time>
      </trkpt>
      <trkpt lat="43.60177" lon="1.17551">
        <ele>272</ele>
        <time>2019-12-05T09:21:56.530Z</time>
      </trkpt>
      <trkpt lat="43.60185" lon="1.17557">
        <ele>272</ele>
        <time>2019-12-05T09:22:04.092Z</time>
      </trkpt>
      <trkpt lat="43.60192" lon="1.17565">
        <ele>272</ele>
        <time>2019-12-05T09:22:11.042Z</time>
      </trkpt>
      <trkpt lat="43.60199" lon="1.17575">
        <ele>272</ele>
        <time>2019-12-05T09:22:18.785Z</time>
      </trkpt>
      <trkpt lat="43.60208" lon="1.17582">
        <ele>272</ele>
        <time>2019-12-05T09:22:26.750Z</time>
      </trkpt>
      <trkpt lat="43.60217" lon="1.17587">
        <ele>272</ele>
        <time>2019-12-05T09:22:34.396Z</time>
      </trkpt>
      <trkpt lat="43.60225" lon="1.17595">
        <ele>272</ele>
        <time>2019-12-05T09:22:41.747Z</time>
      </trkpt>
      <trkpt lat="43.60233" lon="1.17603">
        <ele>272</ele>
        <time>2019-12-05T09:22:49.149Z</time>
      </trkpt>
      <trkpt lat="43.60241" lon="1.1761">
        <ele>272</ele>
        <time>2019-12-05T09:22:56.570Z</time>
      </trkpt>
      <trkpt lat="43.60249" lon="1.17618">
        <ele>272</ele>
        <time>2019-12-05T09:23:04.206Z</time>
      </trkpt>
      <trkpt lat="43.60259" lon="1.17623">
        <ele>272</ele>
        <time>2019-12-05T09:23:12.472Z</time>
      </trkpt>
      <trkpt lat="43.60268" lon="1.1763">
        <ele>272</ele>
        <time>2019-12-05T09:23:20.087Z</time>
      </trkpt>
      <trkpt lat="43.60276" lon="1.17637">
        <ele>272</ele>
        <time>2019-12-05T09:23:27.649Z</time>
      </trkpt>
      <trkpt lat="43.60285" lon="1.17645">
        <ele>272</ele>
        <time>2019-12-05T09:23:35.631Z</time>
      </trkpt>
      <trkpt lat="43.60293" lon="1.17653">
        <ele>272</ele>
        <time>2019-12-05T09:23:43.586Z</time>
      </trkpt>
      <trkpt lat="43.60302" lon="1.17661">
        <ele>272</ele>
        <time>2019-12-05T09:23:51.511Z</time>
      </trkpt>
      <trkpt lat="43.60309" lon="1.17668">
        <ele>272</ele>
        <time>2019-12-05T09:23:58.482Z</time>
      </trkpt>
      <trkpt lat="43.60317" lon="1.17675">
        <ele>272</ele>
        <time>2019-12-05T09:24:05.788Z</time>
      </trkpt>
      <trkpt lat="43.60324" lon="1.17684">
        <ele>272</ele>
        <time>2019-12-05T09:24:12.924Z</time>
      </trkpt>
      <trkpt lat="43.60323" lon="1.17696">
        <ele>272</ele>
        <time>2019-12-05T09:24:20.024Z</time>
      </trkpt>
      <trkpt lat="43.6032" lon="1.17708">
        <ele>272</ele>
        <time>2019-12-05T09:24:27.153Z</time>
      </trkpt>
      <trkpt lat="43.60316" lon="1.17719">
        <ele>272</ele>
        <time>2019-12-05T09:24:34.121Z</time>
      </trkpt>
      <trkpt lat="43.60311" lon="1.17731">
        <ele>272</ele>
        <time>2019-12-05T09:24:41.665Z</time>
      </trkpt>
      <trkpt lat="43.60308" lon="1.17743">
        <ele>271</ele>
        <time>2019-12-05T09:24:49.165Z</time>
      </trkpt>
      <trkpt lat="43.60304" lon="1.17755">
        <ele>271</ele>
        <time>2019-12-05T09:24:56.466Z</time>
      </trkpt>
      <trkpt lat="43.60298" lon="1.17765">
        <ele>271</ele>
        <time>2019-12-05T09:25:03.517Z</time>
      </trkpt>
      <trkpt lat="43.60294" lon="1.17778">
        <ele>271</ele>
        <time>2019-12-05T09:25:11.442Z</time>
      </trkpt>
      <trkpt lat="43.60289" lon="1.1779">
        <ele>270</ele>
        <time>2019-12-05T09:25:18.697Z</time>
      </trkpt>
      <trkpt lat="43.60285" lon="1.17801">
        <ele>269</ele>
        <time>2019-12-05T09:25:25.837Z</time>
      </trkpt>
      <trkpt lat="43.60278" lon="1.17812">
        <ele>268</ele>
        <time>2019-12-05T09:25:33.665Z</time>
      </trkpt>
      <trkpt lat="43.60273" lon="1.17822">
        <ele>267</ele>
        <time>2019-12-05T09:25:40.764Z</time>
      </trkpt>
      <trkpt lat="43.60267" lon="1.17833">
        <ele>267</ele>
        <time>2019-12-05T09:25:48.415Z</time>
      </trkpt>
      <trkpt lat="43.60263" lon="1.17844">
        <ele>266</ele>
        <time>2019-12-05T09:25:55.561Z</time>
      </trkpt>
      <trkpt lat="43.60256" lon="1.17856">
        <ele>265</ele>
        <time>2019-12-05T09:26:03.869Z</time>
      </trkpt>
      <trkpt lat="43.60251" lon="1.17868">
        <ele>264</ele>
        <time>2019-12-05T09:26:11.529Z</time>
      </trkpt>
      <trkpt lat="43.60249" lon="1.17881">
        <ele>263</ele>
        <time>2019-12-05T09:26:18.774Z</time>
      </trkpt>
      <trkpt lat="43.60245" lon="1.17893">
        <ele>262</ele>
        <time>2019-12-05T09:26:26.379Z</time>
      </trkpt>
      <trkpt lat="43.60238" lon="1.17902">
        <ele>261</ele>
        <time>2019-12-05T09:26:33.344Z</time>
      </trkpt>
      <trkpt lat="43.60235" lon="1.17913">
        <ele>261</ele>
        <time>2019-12-05T09:26:40.391Z</time>
      </trkpt>
      <trkpt lat="43.60231" lon="1.17925">
        <ele>260</ele>
        <time>2019-12-05T09:26:47.467Z</time>
      </trkpt>
      <trkpt lat="43.60233" lon="1.17938">
        <ele>259</ele>
        <time>2019-12-05T09:26:54.683Z</time>
      </trkpt>
      <trkpt lat="43.60227" lon="1.17949">
        <ele>257</ele>
        <time>2019-12-05T09:27:01.862Z</time>
      </trkpt>
      <trkpt lat="43.60222" lon="1.1796">
        <ele>256</ele>
        <time>2019-12-05T09:27:09.435Z</time>
      </trkpt>
      <trkpt lat="43.60215" lon="1.17971">
        <ele>255</ele>
        <time>2019-12-05T09:27:17.753Z</time>
      </trkpt>
      <trkpt lat="43.60209" lon="1.17983">
        <ele>255</ele>
        <time>2019-12-05T09:27:25.926Z</time>
      </trkpt>
      <trkpt lat="43.60203" lon="1.17994">
        <ele>254</ele>
        <time>2019-12-05T09:27:33.647Z</time>
      </trkpt>
      <trkpt lat="43.60198" lon="1.18005">
        <ele>253</ele>
        <time>2019-12-05T09:27:40.928Z</time>
      </trkpt>
      <trkpt lat="43.60193" lon="1.18017">
        <ele>252</ele>
        <time>2019-12-05T09:27:48.511Z</time>
      </trkpt>
      <trkpt lat="43.60187" lon="1.18027">
        <ele>251</ele>
        <time>2019-12-05T09:27:55.647Z</time>
      </trkpt>
      <trkpt lat="43.60181" lon="1.18038">
        <ele>250</ele>
        <time>2019-12-05T09:28:03.016Z</time>
      </trkpt>
      <trkpt lat="43.60174" lon="1.18047">
        <ele>249</ele>
        <time>2019-12-05T09:28:10.798Z</time>
      </trkpt>
      <trkpt lat="43.6017" lon="1.18061">
        <ele>247</ele>
        <time>2019-12-05T09:28:18.845Z</time>
      </trkpt>
      <trkpt lat="43.60164" lon="1.18072">
        <ele>246</ele>
        <time>2019-12-05T09:28:26.746Z</time>
      </trkpt>
      <trkpt lat="43.60159" lon="1.18083">
        <ele>245</ele>
        <time>2019-12-05T09:28:33.705Z</time>
      </trkpt>
      <trkpt lat="43.60153" lon="1.18092">
        <ele>244</ele>
        <time>2019-12-05T09:28:40.774Z</time>
      </trkpt>
      <trkpt lat="43.6015" lon="1.18104">
        <ele>243</ele>
        <time>2019-12-05T09:28:47.922Z</time>
      </trkpt>
      <trkpt lat="43.60144" lon="1.18115">
        <ele>242</ele>
        <time>2019-12-05T09:28:55.386Z</time>
      </trkpt>
      <trkpt lat="43.60139" lon="1.18126">
        <ele>241</ele>
        <time>2019-12-05T09:29:02.705Z</time>
      </trkpt>
      <trkpt lat="43.60136" lon="1.18139">
        <ele>241</ele>
        <time>2019-12-05T09:29:09.999Z</time>
      </trkpt>
      <trkpt lat="43.60134" lon="1.18151">
        <ele>240</ele>
        <time>2019-12-05T09:29:17.027Z</time>
      </trkpt>
      <trkpt lat="43.6013" lon="1.18163">
        <ele>239</ele>
        <time>2019-12-05T09:29:24.426Z</time>
      </trkpt>
      <trkpt lat="43.60121" lon="1.18171">
        <ele>238</ele>
        <time>2019-12-05T09:29:32.598Z</time>
      </trkpt>
      <trkpt lat="43.60115" lon="1.18181">
        <ele>238</ele>
        <time>2019-12-05T09:29:39.810Z</time>
      </trkpt>
      <trkpt lat="43.60109" lon="1.18191">
        <ele>238</ele>
        <time>2019-12-05T09:29:46.996Z</time>
      </trkpt>
      <trkpt lat="43.60106" lon="1.18203">
        <ele>238</ele>
        <time>2019-12-05T09:29:54.001Z</time>
      </trkpt>
      <trkpt lat="43.60106" lon="1.18216">
        <ele>238</ele>
        <time>2019-12-05T09:30:01.385Z</time>
      </trkpt>
      <trkpt lat="43.60102" lon="1.18227">
        <ele>238</ele>
        <time>2019-12-05T09:30:08.330Z</time>
      </trkpt>
      <trkpt lat="43.60099" lon="1.1824">
        <ele>238</ele>
        <time>2019-12-05T09:30:15.709Z</time>
      </trkpt>
      <trkpt lat="43.60093" lon="1.18251">
        <ele>239</ele>
        <time>2019-12-05T09:30:23.348Z</time>
      </trkpt>
      <trkpt lat="43.60084" lon="1.1826">
        <ele>240</ele>
        <time>2019-12-05T09:30:32.286Z</time>
      </trkpt>
      <trkpt lat="43.60079" lon="1.18273">
        <ele>240</ele>
        <time>2019-12-05T09:30:40.272Z</time>
      </trkpt>
      <trkpt lat="43.60072" lon="1.18282">
        <ele>241</ele>
        <time>2019-12-05T09:30:47.579Z</time>
      </trkpt>
      <trkpt lat="43.60071" lon="1.18295">
        <ele>241</ele>
        <time>2019-12-05T09:30:54.895Z</time>
      </trkpt>
      <trkpt lat="43.60066" lon="1.18307">
        <ele>241</ele>
        <time>2019-12-05T09:31:02.537Z</time>
      </trkpt>
      <trkpt lat="43.60062" lon="1.18319">
        <ele>241</ele>
        <time>2019-12-05T09:31:09.594Z</time>
      </trkpt>
      <trkpt lat="43.60058" lon="1.18332">
        <ele>241</ele>
        <time>2019-12-05T09:31:17.593Z</time>
      </trkpt>
      <trkpt lat="43.60056" lon="1.18344">
        <ele>241</ele>
        <time>2019-12-05T09:31:24.554Z</time>
      </trkpt>
      <trkpt lat="43.60049" lon="1.18352">
        <ele>242</ele>
        <time>2019-12-05T09:31:31.504Z</time>
      </trkpt>
      <trkpt lat="43.60044" lon="1.18364">
        <ele>242</ele>
        <time>2019-12-05T09:31:39.444Z</time>
      </trkpt>
      <trkpt lat="43.60036" lon="1.18376">
        <ele>243</ele>
        <time>2019-12-05T09:31:47.919Z</time>
      </trkpt>
      <trkpt lat="43.60032" lon="1.18389">
        <ele>244</ele>
        <time>2019-12-05T09:31:56.234Z</time>
      </trkpt>
      <trkpt lat="43.60028" lon="1.18402">
        <ele>244</ele>
        <time>2019-12-05T09:32:03.932Z</time>
      </trkpt>
      <trkpt lat="43.60023" lon="1.18413">
        <ele>244</ele>
        <time>2019-12-05T09:32:11.205Z</time>
      </trkpt>
      <trkpt lat="43.60016" lon="1.18423">
        <ele>245</ele>
        <time>2019-12-05T09:32:18.821Z</time>
      </trkpt>
      <trkpt lat="43.60008" lon="1.18431">
        <ele>246</ele>
        <time>2019-12-05T09:32:26.436Z</time>
      </trkpt>
      <trkpt lat="43.60005" lon="1.18445">
        <ele>246</ele>
        <time>2019-12-05T09:32:34.430Z</time>
      </trkpt>
      <trkpt lat="43.60002" lon="1.18458">
        <ele>246</ele>
        <time>2019-12-05T09:32:42.252Z</time>
      </trkpt>
      <trkpt lat="43.59996" lon="1.18468">
        <ele>246</ele>
        <time>2019-12-05T09:32:49.692Z</time>
      </trkpt>
      <trkpt lat="43.59993" lon="1.18482">
        <ele>246</ele>
        <time>2019-12-05T09:32:57.405Z</time>
      </trkpt>
      <trkpt lat="43.59989" lon="1.18493">
        <ele>247</ele>
        <time>2019-12-05T09:33:04.417Z</time>
      </trkpt>
      <trkpt lat="43.59982" lon="1.18505">
        <ele>247</ele>
        <time>2019-12-05T09:33:12.878Z</time>
      </trkpt>
      <trkpt lat="43.59975" lon="1.18515">
        <ele>247</ele>
        <time>2019-12-05T09:33:20.579Z</time>
      </trkpt>
      <trkpt lat="43.5997" lon="1.18525">
        <ele>247</ele>
        <time>2019-12-05T09:33:27.668Z</time>
      </trkpt>
      <trkpt lat="43.59964" lon="1.18534">
        <ele>246</ele>
        <time>2019-12-05T09:33:34.566Z</time>
      </trkpt>
      <trkpt lat="43.59959" lon="1.18546">
        <ele>246</ele>
        <time>2019-12-05T09:33:42.147Z</time>
      </trkpt>
      <trkpt lat="43.59956" lon="1.1856">
        <ele>246</ele>
        <time>2019-12-05T09:33:49.883Z</time>
      </trkpt>
      <trkpt lat="43.59953" lon="1.18572">
        <ele>245</ele>
        <time>2019-12-05T09:33:57.066Z</time>
      </trkpt>
      <trkpt lat="43.59948" lon="1.18585">
        <ele>245</ele>
        <time>2019-12-05T09:34:05.137Z</time>
      </trkpt>
      <trkpt lat="43.59945" lon="1.18596">
        <ele>245</ele>
        <time>2019-12-05T09:34:12.189Z</time>
      </trkpt>
      <trkpt lat="43.59938" lon="1.18605">
        <ele>245</ele>
        <time>2019-12-05T09:34:19.481Z</time>
      </trkpt>
      <trkpt lat="43.59932" lon="1.18616">
        <ele>244</ele>
        <time>2019-12-05T09:34:27.428Z</time>
      </trkpt>
      <trkpt lat="43.59927" lon="1.18628">
        <ele>244</ele>
        <time>2019-12-05T09:34:34.715Z</time>
      </trkpt>
      <trkpt lat="43.59921" lon="1.1864">
        <ele>243</ele>
        <time>2019-12-05T09:34:42.893Z</time>
      </trkpt>
      <trkpt lat="43.59916" lon="1.18651">
        <ele>243</ele>
        <time>2019-12-05T09:34:50.352Z</time>
      </trkpt>
      <trkpt lat="43.59909" lon="1.18661">
        <ele>242</ele>
        <time>2019-12-05T09:34:58.225Z</time>
      </trkpt>
      <trkpt lat="43.59913" lon="1.18673">
        <ele>242</ele>
        <time>2019-12-05T09:35:05.940Z</time>
      </trkpt>
      <trkpt lat="43.59923" lon="1.18679">
        <ele>242</ele>
        <time>2019-12-05T09:35:14.012Z</time>
      </trkpt>
      <trkpt lat="43.59932" lon="1.18686">
        <ele>242</ele>
        <time>2019-12-05T09:35:22.075Z</time>
      </trkpt>
      <trkpt lat="43.5994" lon="1.18694">
        <ele>243</ele>
        <time>2019-12-05T09:35:29.519Z</time>
      </trkpt>
      <trkpt lat="43.59946" lon="1.18702">
        <ele>243</ele>
        <time>2019-12-05T09:35:36.432Z</time>
      </trkpt>
      <trkpt lat="43.59954" lon="1.18711">
        <ele>243</ele>
        <time>2019-12-05T09:35:44.091Z</time>
      </trkpt>
      <trkpt lat="43.59963" lon="1.18716">
        <ele>244</ele>
        <time>2019-12-05T09:35:51.271Z</time>
      </trkpt>
      <trkpt lat="43.5997" lon="1.18723">
        <ele>244</ele>
        <time>2019-12-05T09:35:58.277Z</time>
      </trkpt>
      <trkpt lat="43.59977" lon="1.18731">
        <ele>244</ele>
        <time>2019-12-05T09:36:05.511Z</time>
      </trkpt>
      <trkpt lat="43.60001" lon="1.18745">
        <ele>245</ele>
        <time>2019-12-05T09:36:25.126Z</time>
      </trkpt>
      <trkpt lat="43.59991" lon="1.18768">
        <ele>244</ele>
        <time>2019-12-05T09:36:40.408Z</time>
      </trkpt>
      <trkpt lat="43.5998" lon="1.18789">
        <ele>243</ele>
        <time>2019-12-05T09:36:54.542Z</time>
      </trkpt>
      <trkpt lat="43.59975" lon="1.18801">
        <ele>242</ele>
        <time>2019-12-05T09:37:02.175Z</time>
      </trkpt>
      <trkpt lat="43.59971" lon="1.18813">
        <ele>242</ele>
        <time>2019-12-05T09:37:09.973Z</time>
      </trkpt>
      <trkpt lat="43.59966" lon="1.18824">
        <ele>241</ele>
        <time>2019-12-05T09:37:17.085Z</time>
      </trkpt>
      <trkpt lat="43.59962" lon="1.18838">
        <ele>241</ele>
        <time>2019-12-05T09:37:25.056Z</time>
      </trkpt>
      <trkpt lat="43.59959" lon="1.18849">
        <ele>240</ele>
        <time>2019-12-05T09:37:32.165Z</time>
      </trkpt>
      <trkpt lat="43.59956" lon="1.18862">
        <ele>240</ele>
        <time>2019-12-05T09:37:39.663Z</time>
      </trkpt>
      <trkpt lat="43.5995" lon="1.18873">
        <ele>239</ele>
        <time>2019-12-05T09:37:46.941Z</time>
      </trkpt>
      <trkpt lat="43.59946" lon="1.18884">
        <ele>238</ele>
        <time>2019-12-05T09:37:53.910Z</time>
      </trkpt>
      <trkpt lat="43.59939" lon="1.18892">
        <ele>237</ele>
        <time>2019-12-05T09:38:01.189Z</time>
      </trkpt>
      <trkpt lat="43.59934" lon="1.18903">
        <ele>237</ele>
        <time>2019-12-05T09:38:08.551Z</time>
      </trkpt>
      <trkpt lat="43.59929" lon="1.18914">
        <ele>236</ele>
        <time>2019-12-05T09:38:15.671Z</time>
      </trkpt>
      <trkpt lat="43.59927" lon="1.18926">
        <ele>235</ele>
        <time>2019-12-05T09:38:22.646Z</time>
      </trkpt>
      <trkpt lat="43.59923" lon="1.18939">
        <ele>235</ele>
        <time>2019-12-05T09:38:30.326Z</time>
      </trkpt>
      <trkpt lat="43.59916" lon="1.18949">
        <ele>234</ele>
        <time>2019-12-05T09:38:38.312Z</time>
      </trkpt>
      <trkpt lat="43.59909" lon="1.1896">
        <ele>232</ele>
        <time>2019-12-05T09:38:46.351Z</time>
      </trkpt>
      <trkpt lat="43.59903" lon="1.18972">
        <ele>231</ele>
        <time>2019-12-05T09:38:54.586Z</time>
      </trkpt>
      <trkpt lat="43.59898" lon="1.18982">
        <ele>230</ele>
        <time>2019-12-05T09:39:01.499Z</time>
      </trkpt>
      <trkpt lat="43.59891" lon="1.18994">
        <ele>228</ele>
        <time>2019-12-05T09:39:09.797Z</time>
      </trkpt>
      <trkpt lat="43.59887" lon="1.19006">
        <ele>228</ele>
        <time>2019-12-05T09:39:17.085Z</time>
      </trkpt>
      <trkpt lat="43.59886" lon="1.19018">
        <ele>227</ele>
        <time>2019-12-05T09:39:24.190Z</time>
      </trkpt>
      <trkpt lat="43.59881" lon="1.19031">
        <ele>226</ele>
        <time>2019-12-05T09:39:32.177Z</time>
      </trkpt>
      <trkpt lat="43.59876" lon="1.19043">
        <ele>226</ele>
        <time>2019-12-05T09:39:39.871Z</time>
      </trkpt>
      <trkpt lat="43.59871" lon="1.19054">
        <ele>225</ele>
        <time>2019-12-05T09:39:47.055Z</time>
      </trkpt>
      <trkpt lat="43.59865" lon="1.19064">
        <ele>224</ele>
        <time>2019-12-05T09:39:54.338Z</time>
      </trkpt>
      <trkpt lat="43.59867" lon="1.19076">
        <ele>224</ele>
        <time>2019-12-05T09:40:01.386Z</time>
      </trkpt>
      <trkpt lat="43.59877" lon="1.19074">
        <ele>224</ele>
        <time>2019-12-05T09:40:08.659Z</time>
      </trkpt>
      <trkpt lat="43.59887" lon="1.19074">
        <ele>225</ele>
        <time>2019-12-05T09:40:16.743Z</time>
      </trkpt>
      <trkpt lat="43.59898" lon="1.19078">
        <ele>226</ele>
        <time>2019-12-05T09:40:25.306Z</time>
      </trkpt>
      <trkpt lat="43.59907" lon="1.19079">
        <ele>227</ele>
        <time>2019-12-05T09:40:32.368Z</time>
      </trkpt>
      <trkpt lat="43.59917" lon="1.19083">
        <ele>228</ele>
        <time>2019-12-05T09:40:40.072Z</time>
      </trkpt>
      <trkpt lat="43.59927" lon="1.19087">
        <ele>229</ele>
        <time>2019-12-05T09:40:48.282Z</time>
      </trkpt>
      <trkpt lat="43.59936" lon="1.1909">
        <ele>230</ele>
        <time>2019-12-05T09:40:55.349Z</time>
      </trkpt>
      <trkpt lat="43.59945" lon="1.19094">
        <ele>230</ele>
        <time>2019-12-05T09:41:03.117Z</time>
      </trkpt>
      <trkpt lat="43.59955" lon="1.19096">
        <ele>231</ele>
        <time>2019-12-05T09:41:10.515Z</time>
      </trkpt>
      <trkpt lat="43.59964" lon="1.19099">
        <ele>231</ele>
        <time>2019-12-05T09:41:17.842Z</time>
      </trkpt>
      <trkpt lat="43.59973" lon="1.19101">
        <ele>232</ele>
        <time>2019-12-05T09:41:25.071Z</time>
      </trkpt>
      <trkpt lat="43.59983" lon="1.19102">
        <ele>231</ele>
        <time>2019-12-05T09:41:32.338Z</time>
      </trkpt>
      <trkpt lat="43.59992" lon="1.191">
        <ele>231</ele>
        <time>2019-12-05T09:41:39.415Z</time>
      </trkpt>
      <trkpt lat="43.60002" lon="1.19094">
        <ele>231</ele>
        <time>2019-12-05T09:41:47.853Z</time>
      </trkpt>
      <trkpt lat="43.60011" lon="1.19089">
        <ele>231</ele>
        <time>2019-12-05T09:41:55.188Z</time>
      </trkpt>
      <trkpt lat="43.6002" lon="1.19086">
        <ele>230</ele>
        <time>2019-12-05T09:42:02.778Z</time>
      </trkpt>
      <trkpt lat="43.60029" lon="1.19081">
        <ele>230</ele>
        <time>2019-12-05T09:42:09.911Z</time>
      </trkpt>
      <trkpt lat="43.60038" lon="1.19078">
        <ele>229</ele>
        <time>2019-12-05T09:42:17.356Z</time>
      </trkpt>
      <trkpt lat="43.60047" lon="1.19073">
        <ele>229</ele>
        <time>2019-12-05T09:42:24.916Z</time>
      </trkpt>
      <trkpt lat="43.60058" lon="1.1907">
        <ele>228</ele>
        <time>2019-12-05T09:42:32.944Z</time>
      </trkpt>
      <trkpt lat="43.60067" lon="1.19066">
        <ele>227</ele>
        <time>2019-12-05T09:42:40.721Z</time>
      </trkpt>
      <trkpt lat="43.60077" lon="1.19068">
        <ele>226</ele>
        <time>2019-12-05T09:42:48.111Z</time>
      </trkpt>
      <trkpt lat="43.60084" lon="1.19076">
        <ele>225</ele>
        <time>2019-12-05T09:42:55.106Z</time>
      </trkpt>
      <trkpt lat="43.60093" lon="1.19081">
        <ele>224</ele>
        <time>2019-12-05T09:43:02.349Z</time>
      </trkpt>
      <trkpt lat="43.60101" lon="1.19087">
        <ele>223</ele>
        <time>2019-12-05T09:43:09.810Z</time>
      </trkpt>
      <trkpt lat="43.60111" lon="1.19091">
        <ele>222</ele>
        <time>2019-12-05T09:43:17.498Z</time>
      </trkpt>
      <trkpt lat="43.60129" lon="1.19109">
        <ele>220</ele>
        <time>2019-12-05T09:43:34.805Z</time>
      </trkpt>
      <trkpt lat="43.6015" lon="1.19127">
        <ele>218</ele>
        <time>2019-12-05T09:43:54.140Z</time>
      </trkpt>
      <trkpt lat="43.6016" lon="1.19137">
        <ele>217</ele>
        <time>2019-12-05T09:44:02.989Z</time>
      </trkpt>
      <trkpt lat="43.60168" lon="1.19141">
        <ele>217</ele>
        <time>2019-12-05T09:44:10.130Z</time>
      </trkpt>
      <trkpt lat="43.60183" lon="1.19155">
        <ele>218</ele>
        <time>2019-12-05T09:44:24.077Z</time>
      </trkpt>
      <trkpt lat="43.60189" lon="1.19166">
        <ele>218</ele>
        <time>2019-12-05T09:44:31.849Z</time>
      </trkpt>
      <trkpt lat="43.60203" lon="1.19183">
        <ele>219</ele>
        <time>2019-12-05T09:44:46.048Z</time>
      </trkpt>
      <trkpt lat="43.60209" lon="1.19196">
        <ele>219</ele>
        <time>2019-12-05T09:44:54.520Z</time>
      </trkpt>
      <trkpt lat="43.60213" lon="1.19212">
        <ele>219</ele>
        <time>2019-12-05T09:45:04.112Z</time>
      </trkpt>
      <trkpt lat="43.60219" lon="1.19218">
        <ele>220</ele>
        <time>2019-12-05T09:45:10.010Z</time>
      </trkpt>
      <trkpt lat="43.60227" lon="1.19225">
        <ele>220</ele>
        <time>2019-12-05T09:45:17.278Z</time>
      </trkpt>
      <trkpt lat="43.60235" lon="1.19232">
        <ele>221</ele>
        <time>2019-12-05T09:45:24.314Z</time>
      </trkpt>
      <trkpt lat="43.60244" lon="1.19238">
        <ele>221</ele>
        <time>2019-12-05T09:45:31.945Z</time>
      </trkpt>
      <trkpt lat="43.60253" lon="1.19245">
        <ele>222</ele>
        <time>2019-12-05T09:45:40.004Z</time>
      </trkpt>
      <trkpt lat="43.60262" lon="1.1925">
        <ele>222</ele>
        <time>2019-12-05T09:45:47.073Z</time>
      </trkpt>
      <trkpt lat="43.60271" lon="1.19257">
        <ele>223</ele>
        <time>2019-12-05T09:45:55.165Z</time>
      </trkpt>
      <trkpt lat="43.60278" lon="1.19265">
        <ele>223</ele>
        <time>2019-12-05T09:46:02.359Z</time>
      </trkpt>
      <trkpt lat="43.60287" lon="1.19271">
        <ele>224</ele>
        <time>2019-12-05T09:46:09.921Z</time>
      </trkpt>
      <trkpt lat="43.60295" lon="1.19276">
        <ele>224</ele>
        <time>2019-12-05T09:46:17.033Z</time>
      </trkpt>
      <trkpt lat="43.60303" lon="1.19282">
        <ele>224</ele>
        <time>2019-12-05T09:46:24.057Z</time>
      </trkpt>
      <trkpt lat="43.6031" lon="1.19292">
        <ele>223</ele>
        <time>2019-12-05T09:46:31.708Z</time>
      </trkpt>
      <trkpt lat="43.6032" lon="1.19299">
        <ele>223</ele>
        <time>2019-12-05T09:46:40.496Z</time>
      </trkpt>
      <trkpt lat="43.60326" lon="1.19306">
        <ele>223</ele>
        <time>2019-12-05T09:46:46.566Z</time>
      </trkpt>
      <trkpt lat="43.60355" lon="1.19325">
        <ele>221</ele>
        <time>2019-12-05T09:47:11.019Z</time>
      </trkpt>
      <trkpt lat="43.60364" lon="1.19333">
        <ele>220</ele>
        <time>2019-12-05T09:47:19.414Z</time>
      </trkpt>
      <trkpt lat="43.60375" lon="1.19341">
        <ele>220</ele>
        <time>2019-12-05T09:47:29.078Z</time>
      </trkpt>
      <trkpt lat="43.60389" lon="1.19354">
        <ele>220</ele>
        <time>2019-12-05T09:47:41.593Z</time>
      </trkpt>
      <trkpt lat="43.60397" lon="1.19361">
        <ele>220</ele>
        <time>2019-12-05T09:47:48.825Z</time>
      </trkpt>
      <trkpt lat="43.60404" lon="1.19368">
        <ele>221</ele>
        <time>2019-12-05T09:47:55.870Z</time>
      </trkpt>
      <trkpt lat="43.60413" lon="1.19373">
        <ele>221</ele>
        <time>2019-12-05T09:48:03.075Z</time>
      </trkpt>
      <trkpt lat="43.6042" lon="1.19382">
        <ele>222</ele>
        <time>2019-12-05T09:48:10.935Z</time>
      </trkpt>
      <trkpt lat="43.60429" lon="1.19388">
        <ele>223</ele>
        <time>2019-12-05T09:48:18.267Z</time>
      </trkpt>
      <trkpt lat="43.60436" lon="1.19395">
        <ele>224</ele>
        <time>2019-12-05T09:48:25.394Z</time>
      </trkpt>
      <trkpt lat="43.60446" lon="1.19401">
        <ele>225</ele>
        <time>2019-12-05T09:48:33.366Z</time>
      </trkpt>
      <trkpt lat="43.60454" lon="1.19408">
        <ele>226</ele>
        <time>2019-12-05T09:48:40.428Z</time>
      </trkpt>
      <trkpt lat="43.60462" lon="1.19412">
        <ele>228</ele>
        <time>2019-12-05T09:48:47.263Z</time>
      </trkpt>
      <trkpt lat="43.6047" lon="1.19419">
        <ele>229</ele>
        <time>2019-12-05T09:48:54.560Z</time>
      </trkpt>
      <trkpt lat="43.60479" lon="1.19426">
        <ele>230</ele>
        <time>2019-12-05T09:49:02.175Z</time>
      </trkpt>
      <trkpt lat="43.60487" lon="1.19432">
        <ele>231</ele>
        <time>2019-12-05T09:49:09.443Z</time>
      </trkpt>
      <trkpt lat="43.60495" lon="1.1944">
        <ele>231</ele>
        <time>2019-12-05T09:49:16.855Z</time>
      </trkpt>
      <trkpt lat="43.60504" lon="1.19446">
        <ele>232</ele>
        <time>2019-12-05T09:49:24.524Z</time>
      </trkpt>
      <trkpt lat="43.6051" lon="1.19452">
        <ele>233</ele>
        <time>2019-12-05T09:49:30.700Z</time>
      </trkpt>
      <trkpt lat="43.60518" lon="1.1946">
        <ele>234</ele>
        <time>2019-12-05T09:49:38.369Z</time>
      </trkpt>
      <trkpt lat="43.60527" lon="1.19467">
        <ele>235</ele>
        <time>2019-12-05T09:49:45.795Z</time>
      </trkpt>
      <trkpt lat="43.60535" lon="1.19474">
        <ele>235</ele>
        <time>2019-12-05T09:49:52.892Z</time>
      </trkpt>
      <trkpt lat="43.60542" lon="1.1948">
        <ele>236</ele>
        <time>2019-12-05T09:49:59.820Z</time>
      </trkpt>
      <trkpt lat="43.60552" lon="1.19483">
        <ele>236</ele>
        <time>2019-12-05T09:50:07.329Z</time>
      </trkpt>
      <trkpt lat="43.60559" lon="1.19492">
        <ele>236</ele>
        <time>2019-12-05T09:50:14.691Z</time>
      </trkpt>
      <trkpt lat="43.60567" lon="1.19498">
        <ele>236</ele>
        <time>2019-12-05T09:50:21.502Z</time>
      </trkpt>
      <trkpt lat="43.60564" lon="1.19503">
        <ele>236</ele>
        <time>2019-12-05T09:50:25.034Z</time>
      </trkpt>
      <trkpt lat="43.6056" lon="1.19516">
        <ele>236</ele>
        <time>2019-12-05T09:50:32.878Z</time>
      </trkpt>
      <trkpt lat="43.60559" lon="1.19529">
        <ele>236</ele>
        <time>2019-12-05T09:50:40.228Z</time>
      </trkpt>
      <trkpt lat="43.60555" lon="1.19542">
        <ele>235</ele>
        <time>2019-12-05T09:50:47.744Z</time>
      </trkpt>
      <trkpt lat="43.60548" lon="1.1955">
        <ele>235</ele>
        <time>2019-12-05T09:50:54.862Z</time>
      </trkpt>
      <trkpt lat="43.60542" lon="1.1956">
        <ele>235</ele>
        <time>2019-12-05T09:51:01.973Z</time>
      </trkpt>
      <trkpt lat="43.60537" lon="1.19571">
        <ele>234</ele>
        <time>2019-12-05T09:51:09.385Z</time>
      </trkpt>
      <trkpt lat="43.60533" lon="1.19584">
        <ele>234</ele>
        <time>2019-12-05T09:51:17.200Z</time>
      </trkpt>
      <trkpt lat="43.60527" lon="1.19593">
        <ele>234</ele>
        <time>2019-12-05T09:51:24.206Z</time>
      </trkpt>
      <trkpt lat="43.60521" lon="1.19603">
        <ele>233</ele>
        <time>2019-12-05T09:51:31.317Z</time>
      </trkpt>
      <trkpt lat="43.60516" lon="1.19616">
        <ele>232</ele>
        <time>2019-12-05T09:51:39.349Z</time>
      </trkpt>
      <trkpt lat="43.60512" lon="1.19628">
        <ele>232</ele>
        <time>2019-12-05T09:51:46.713Z</time>
      </trkpt>
      <trkpt lat="43.60507" lon="1.19639">
        <ele>231</ele>
        <time>2019-12-05T09:51:53.756Z</time>
      </trkpt>
      <trkpt lat="43.60505" lon="1.19651">
        <ele>230</ele>
        <time>2019-12-05T09:52:00.867Z</time>
      </trkpt>
      <trkpt lat="43.6051" lon="1.19662">
        <ele>231</ele>
        <time>2019-12-05T09:52:08.588Z</time>
      </trkpt>
      <trkpt lat="43.60517" lon="1.19671">
        <ele>231</ele>
        <time>2019-12-05T09:52:15.674Z</time>
      </trkpt>
      <trkpt lat="43.60525" lon="1.19678">
        <ele>231</ele>
        <time>2019-12-05T09:52:23.025Z</time>
      </trkpt>
      <trkpt lat="43.60533" lon="1.19687">
        <ele>232</ele>
        <time>2019-12-05T09:52:30.544Z</time>
      </trkpt>
      <trkpt lat="43.60542" lon="1.19694">
        <ele>232</ele>
        <time>2019-12-05T09:52:38.694Z</time>
      </trkpt>
      <trkpt lat="43.6055" lon="1.19705">
        <ele>232</ele>
        <time>2019-12-05T09:52:47.227Z</time>
      </trkpt>
      <trkpt lat="43.60557" lon="1.19711">
        <ele>232</ele>
        <time>2019-12-05T09:52:54.198Z</time>
      </trkpt>
      <trkpt lat="43.60565" lon="1.19719">
        <ele>231</ele>
        <time>2019-12-05T09:53:01.277Z</time>
      </trkpt>
      <trkpt lat="43.60574" lon="1.19721">
        <ele>230</ele>
        <time>2019-12-05T09:53:08.638Z</time>
      </trkpt>
      <trkpt lat="43.60584" lon="1.19723">
        <ele>230</ele>
        <time>2019-12-05T09:53:16.245Z</time>
      </trkpt>
      <trkpt lat="43.60591" lon="1.19732">
        <ele>229</ele>
        <time>2019-12-05T09:53:23.457Z</time>
      </trkpt>
      <trkpt lat="43.60599" lon="1.1974">
        <ele>228</ele>
        <time>2019-12-05T09:53:31.122Z</time>
      </trkpt>
      <trkpt lat="43.60605" lon="1.1975">
        <ele>227</ele>
        <time>2019-12-05T09:53:38.542Z</time>
      </trkpt>
      <trkpt lat="43.60613" lon="1.19759">
        <ele>226</ele>
        <time>2019-12-05T09:53:46.118Z</time>
      </trkpt>
      <trkpt lat="43.60622" lon="1.19764">
        <ele>225</ele>
        <time>2019-12-05T09:53:53.934Z</time>
      </trkpt>
      <trkpt lat="43.60632" lon="1.19768">
        <ele>225</ele>
        <time>2019-12-05T09:54:02.022Z</time>
      </trkpt>
      <trkpt lat="43.6064" lon="1.19774">
        <ele>225</ele>
        <time>2019-12-05T09:54:09.084Z</time>
      </trkpt>
      <trkpt lat="43.60649" lon="1.19782">
        <ele>225</ele>
        <time>2019-12-05T09:54:16.979Z</time>
      </trkpt>
      <trkpt lat="43.60658" lon="1.19788">
        <ele>226</ele>
        <time>2019-12-05T09:54:24.675Z</time>
      </trkpt>
      <trkpt lat="43.60666" lon="1.19795">
        <ele>226</ele>
        <time>2019-12-05T09:54:32.276Z</time>
      </trkpt>
      <trkpt lat="43.60674" lon="1.19803">
        <ele>227</ele>
        <time>2019-12-05T09:54:39.510Z</time>
      </trkpt>
      <trkpt lat="43.60682" lon="1.19811">
        <ele>228</ele>
        <time>2019-12-05T09:54:47.049Z</time>
      </trkpt>
      <trkpt lat="43.60691" lon="1.19815">
        <ele>229</ele>
        <time>2019-12-05T09:54:54.836Z</time>
      </trkpt>
      <trkpt lat="43.60701" lon="1.19821">
        <ele>230</ele>
        <time>2019-12-05T09:55:02.808Z</time>
      </trkpt>
      <trkpt lat="43.60709" lon="1.19829">
        <ele>231</ele>
        <time>2019-12-05T09:55:10.600Z</time>
      </trkpt>
      <trkpt lat="43.60717" lon="1.19836">
        <ele>231</ele>
        <time>2019-12-05T09:55:17.745Z</time>
      </trkpt>
      <trkpt lat="43.60724" lon="1.19844">
        <ele>232</ele>
        <time>2019-12-05T09:55:24.850Z</time>
      </trkpt>
      <trkpt lat="43.60733" lon="1.19848">
        <ele>233</ele>
        <time>2019-12-05T09:55:31.819Z</time>
      </trkpt>
      <trkpt lat="43.60742" lon="1.19856">
        <ele>233</ele>
        <time>2019-12-05T09:55:39.904Z</time>
      </trkpt>
      <trkpt lat="43.6075" lon="1.19863">
        <ele>233</ele>
        <time>2019-12-05T09:55:47.411Z</time>
      </trkpt>
      <trkpt lat="43.60758" lon="1.19871">
        <ele>234</ele>
        <time>2019-12-05T09:55:54.728Z</time>
      </trkpt>
      <trkpt lat="43.60767" lon="1.19877">
        <ele>234</ele>
        <time>2019-12-05T09:56:02.630Z</time>
      </trkpt>
      <trkpt lat="43.60777" lon="1.19882">
        <ele>235</ele>
        <time>2019-12-05T09:56:10.962Z</time>
      </trkpt>
      <trkpt lat="43.60785" lon="1.19888">
        <ele>235</ele>
        <time>2019-12-05T09:56:17.975Z</time>
      </trkpt>
      <trkpt lat="43.60792" lon="1.19897">
        <ele>235</ele>
        <time>2019-12-05T09:56:25.314Z</time>
      </trkpt>
      <trkpt lat="43.60801" lon="1.19904">
        <ele>235</ele>
        <time>2019-12-05T09:56:33.363Z</time>
      </trkpt>
      <trkpt lat="43.60809" lon="1.19911">
        <ele>235</ele>
        <time>2019-12-05T09:56:40.508Z</time>
      </trkpt>
      <trkpt lat="43.60816" lon="1.1992">
        <ele>235</ele>
        <time>2019-12-05T09:56:47.832Z</time>
      </trkpt>
      <trkpt lat="43.60825" lon="1.19925">
        <ele>235</ele>
        <time>2019-12-05T09:56:55.116Z</time>
      </trkpt>
      <trkpt lat="43.60834" lon="1.19928">
        <ele>235</ele>
        <time>2019-12-05T09:57:02.582Z</time>
      </trkpt>
      <trkpt lat="43.60843" lon="1.19936">
        <ele>235</ele>
        <time>2019-12-05T09:57:10.564Z</time>
      </trkpt>
      <trkpt lat="43.60852" lon="1.19941">
        <ele>235</ele>
        <time>2019-12-05T09:57:18.260Z</time>
      </trkpt>
      <trkpt lat="43.60861" lon="1.19948">
        <ele>235</ele>
        <time>2019-12-05T09:57:26.309Z</time>
      </trkpt>
      <trkpt lat="43.6087" lon="1.19955">
        <ele>235</ele>
        <time>2019-12-05T09:57:34.233Z</time>
      </trkpt>
      <trkpt lat="43.60877" lon="1.19964">
        <ele>235</ele>
        <time>2019-12-05T09:57:41.453Z</time>
      </trkpt>
      <trkpt lat="43.60886" lon="1.19972">
        <ele>234</ele>
        <time>2019-12-05T09:57:49.508Z</time>
      </trkpt>
      <trkpt lat="43.60893" lon="1.19981">
        <ele>234</ele>
        <time>2019-12-05T09:57:56.692Z</time>
      </trkpt>
      <trkpt lat="43.60903" lon="1.19985">
        <ele>234</ele>
        <time>2019-12-05T09:58:04.678Z</time>
      </trkpt>
      <trkpt lat="43.6091" lon="1.19993">
        <ele>234</ele>
        <time>2019-12-05T09:58:11.905Z</time>
      </trkpt>
      <trkpt lat="43.60918" lon="1.2">
        <ele>234</ele>
        <time>2019-12-05T09:58:18.976Z</time>
      </trkpt>
      <trkpt lat="43.60927" lon="1.20006">
        <ele>234</ele>
        <time>2019-12-05T09:58:26.621Z</time>
      </trkpt>
      <trkpt lat="43.60937" lon="1.20008">
        <ele>234</ele>
        <time>2019-12-05T09:58:34.444Z</time>
      </trkpt>
      <trkpt lat="43.60943" lon="1.19997">
        <ele>234</ele>
        <time>2019-12-05T09:58:42.210Z</time>
      </trkpt>
      <trkpt lat="43.60948" lon="1.19986">
        <ele>235</ele>
        <time>2019-12-05T09:58:49.439Z</time>
      </trkpt>
      <trkpt lat="43.6095" lon="1.19973">
        <ele>235</ele>
        <time>2019-12-05T09:58:57.090Z</time>
      </trkpt>
      <trkpt lat="43.60955" lon="1.19961">
        <ele>235</ele>
        <time>2019-12-05T09:59:04.772Z</time>
      </trkpt>
      <trkpt lat="43.6096" lon="1.19949">
        <ele>235</ele>
        <time>2019-12-05T09:59:12.524Z</time>
      </trkpt>
      <trkpt lat="43.60962" lon="1.19935">
        <ele>235</ele>
        <time>2019-12-05T09:59:20.346Z</time>
      </trkpt>
      <trkpt lat="43.60966" lon="1.19923">
        <ele>235</ele>
        <time>2019-12-05T09:59:27.402Z</time>
      </trkpt>
      <trkpt lat="43.60971" lon="1.19914">
        <ele>235</ele>
        <time>2019-12-05T09:59:34.273Z</time>
      </trkpt>
      <trkpt lat="43.60978" lon="1.19904">
        <ele>235</ele>
        <time>2019-12-05T09:59:41.712Z</time>
      </trkpt>
      <trkpt lat="43.60982" lon="1.19892">
        <ele>236</ele>
        <time>2019-12-05T09:59:48.877Z</time>
      </trkpt>
      <trkpt lat="43.60989" lon="1.19882">
        <ele>236</ele>
        <time>2019-12-05T09:59:56.646Z</time>
      </trkpt>
      <trkpt lat="43.60993" lon="1.19871">
        <ele>236</ele>
        <time>2019-12-05T10:00:03.785Z</time>
      </trkpt>
      <trkpt lat="43.61001" lon="1.19862">
        <ele>236</ele>
        <time>2019-12-05T10:00:11.412Z</time>
      </trkpt>
      <trkpt lat="43.61006" lon="1.19852">
        <ele>236</ele>
        <time>2019-12-05T10:00:18.412Z</time>
      </trkpt>
      <trkpt lat="43.61011" lon="1.1984">
        <ele>236</ele>
        <time>2019-12-05T10:00:25.686Z</time>
      </trkpt>
      <trkpt lat="43.61018" lon="1.1983">
        <ele>235</ele>
        <time>2019-12-05T10:00:33.507Z</time>
      </trkpt>
      <trkpt lat="43.61024" lon="1.1982">
        <ele>236</ele>
        <time>2019-12-05T10:00:40.926Z</time>
      </trkpt>
      <trkpt lat="43.61029" lon="1.19809">
        <ele>236</ele>
        <time>2019-12-05T10:00:48.307Z</time>
      </trkpt>
      <trkpt lat="43.61033" lon="1.19795">
        <ele>236</ele>
        <time>2019-12-05T10:00:56.538Z</time>
      </trkpt>
      <trkpt lat="43.61035" lon="1.19781">
        <ele>236</ele>
        <time>2019-12-05T10:01:04.377Z</time>
      </trkpt>
      <trkpt lat="43.6104" lon="1.1977">
        <ele>236</ele>
        <time>2019-12-05T10:01:12.022Z</time>
      </trkpt>
      <trkpt lat="43.61045" lon="1.19757">
        <ele>236</ele>
        <time>2019-12-05T10:01:19.719Z</time>
      </trkpt>
      <trkpt lat="43.6105" lon="1.19746">
        <ele>236</ele>
        <time>2019-12-05T10:01:26.925Z</time>
      </trkpt>
      <trkpt lat="43.61055" lon="1.19736">
        <ele>236</ele>
        <time>2019-12-05T10:01:34.059Z</time>
      </trkpt>
      <trkpt lat="43.6106" lon="1.19724">
        <ele>236</ele>
        <time>2019-12-05T10:01:41.419Z</time>
      </trkpt>
      <trkpt lat="43.61064" lon="1.19713">
        <ele>236</ele>
        <time>2019-12-05T10:01:48.584Z</time>
      </trkpt>
      <trkpt lat="43.61069" lon="1.19701">
        <ele>236</ele>
        <time>2019-12-05T10:01:56.500Z</time>
      </trkpt>
      <trkpt lat="43.61075" lon="1.1969">
        <ele>235</ele>
        <time>2019-12-05T10:02:03.815Z</time>
      </trkpt>
      <trkpt lat="43.61082" lon="1.19681">
        <ele>235</ele>
        <time>2019-12-05T10:02:11.127Z</time>
      </trkpt>
      <trkpt lat="43.61088" lon="1.19671">
        <ele>235</ele>
        <time>2019-12-05T10:02:18.535Z</time>
      </trkpt>
      <trkpt lat="43.61093" lon="1.1966">
        <ele>234</ele>
        <time>2019-12-05T10:02:25.749Z</time>
      </trkpt>
      <trkpt lat="43.61094" lon="1.19647">
        <ele>234</ele>
        <time>2019-12-05T10:02:32.759Z</time>
      </trkpt>
      <trkpt lat="43.61102" lon="1.19641">
        <ele>233</ele>
        <time>2019-12-05T10:02:40.159Z</time>
      </trkpt>
      <trkpt lat="43.61112" lon="1.19643">
        <ele>232</ele>
        <time>2019-12-05T10:02:47.802Z</time>
      </trkpt>
      <trkpt lat="43.61121" lon="1.19643">
        <ele>231</ele>
        <time>2019-12-05T10:02:55.038Z</time>
      </trkpt>
      <trkpt lat="43.6113" lon="1.19649">
        <ele>231</ele>
        <time>2019-12-05T10:03:02.707Z</time>
      </trkpt>
      <trkpt lat="43.61138" lon="1.19658">
        <ele>231</ele>
        <time>2019-12-05T10:03:10.356Z</time>
      </trkpt>
      <trkpt lat="43.61146" lon="1.19665">
        <ele>231</ele>
        <time>2019-12-05T10:03:17.719Z</time>
      </trkpt>
      <trkpt lat="43.61155" lon="1.19671">
        <ele>231</ele>
        <time>2019-12-05T10:03:25.148Z</time>
      </trkpt>
      <trkpt lat="43.61163" lon="1.19677">
        <ele>230</ele>
        <time>2019-12-05T10:03:32.471Z</time>
      </trkpt>
      <trkpt lat="43.61172" lon="1.19684">
        <ele>230</ele>
        <time>2019-12-05T10:03:40.238Z</time>
      </trkpt>
      <trkpt lat="43.61181" lon="1.19687">
        <ele>229</ele>
        <time>2019-12-05T10:03:47.336Z</time>
      </trkpt>
      <trkpt lat="43.61189" lon="1.19697">
        <ele>228</ele>
        <time>2019-12-05T10:03:55.400Z</time>
      </trkpt>
      <trkpt lat="43.61198" lon="1.19702">
        <ele>228</ele>
        <time>2019-12-05T10:04:02.981Z</time>
      </trkpt>
      <trkpt lat="43.61206" lon="1.1971">
        <ele>227</ele>
        <time>2019-12-05T10:04:10.773Z</time>
      </trkpt>
      <trkpt lat="43.61214" lon="1.19717">
        <ele>227</ele>
        <time>2019-12-05T10:04:18.099Z</time>
      </trkpt>
      <trkpt lat="43.61222" lon="1.19723">
        <ele>226</ele>
        <time>2019-12-05T10:04:25.107Z</time>
      </trkpt>
      <trkpt lat="43.61231" lon="1.19732">
        <ele>225</ele>
        <time>2019-12-05T10:04:33.465Z</time>
      </trkpt>
      <trkpt lat="43.61239" lon="1.19739">
        <ele>225</ele>
        <time>2019-12-05T10:04:40.951Z</time>
      </trkpt>
      <trkpt lat="43.61248" lon="1.19746">
        <ele>224</ele>
        <time>2019-12-05T10:04:48.856Z</time>
      </trkpt>
      <trkpt lat="43.61257" lon="1.19751">
        <ele>224</ele>
        <time>2019-12-05T10:04:56.154Z</time>
      </trkpt>
      <trkpt lat="43.61263" lon="1.19761">
        <ele>223</ele>
        <time>2019-12-05T10:05:03.107Z</time>
      </trkpt>
      <trkpt lat="43.61273" lon="1.19768">
        <ele>223</ele>
        <time>2019-12-05T10:05:11.925Z</time>
      </trkpt>
      <trkpt lat="43.61283" lon="1.19774">
        <ele>222</ele>
        <time>2019-12-05T10:05:20.111Z</time>
      </trkpt>
      <trkpt lat="43.61292" lon="1.1978">
        <ele>221</ele>
        <time>2019-12-05T10:05:27.877Z</time>
      </trkpt>
      <trkpt lat="43.61301" lon="1.19786">
        <ele>221</ele>
        <time>2019-12-05T10:05:35.570Z</time>
      </trkpt>
      <trkpt lat="43.61309" lon="1.19793">
        <ele>221</ele>
        <time>2019-12-05T10:05:42.666Z</time>
      </trkpt>
      <trkpt lat="43.61314" lon="1.19804">
        <ele>220</ele>
        <time>2019-12-05T10:05:50.030Z</time>
      </trkpt>
      <trkpt lat="43.61322" lon="1.19812">
        <ele>220</ele>
        <time>2019-12-05T10:05:58.108Z</time>
      </trkpt>
      <trkpt lat="43.61331" lon="1.19817">
        <ele>220</ele>
        <time>2019-12-05T10:06:05.149Z</time>
      </trkpt>
      <trkpt lat="43.6134" lon="1.19824">
        <ele>220</ele>
        <time>2019-12-05T10:06:13.036Z</time>
      </trkpt>
      <trkpt lat="43.61349" lon="1.1983">
        <ele>220</ele>
        <time>2019-12-05T10:06:21.197Z</time>
      </trkpt>
      <trkpt lat="43.61358" lon="1.19836">
        <ele>220</ele>
        <time>2019-12-05T10:06:28.289Z</time>
      </trkpt>
      <trkpt lat="43.61366" lon="1.19843">
        <ele>220</ele>
        <time>2019-12-05T10:06:35.567Z</time>
      </trkpt>
      <trkpt lat="43.61375" lon="1.19851">
        <ele>219</ele>
        <time>2019-12-05T10:06:43.739Z</time>
      </trkpt>
      <trkpt lat="43.61383" lon="1.1986">
        <ele>219</ele>
        <time>2019-12-05T10:06:51.788Z</time>
      </trkpt>
      <trkpt lat="43.61391" lon="1.19853">
        <ele>219</ele>
        <time>2019-12-05T10:06:59.456Z</time>
      </trkpt>
      <trkpt lat="43.61393" lon="1.1984">
        <ele>220</ele>
        <time>2019-12-05T10:07:06.934Z</time>
      </trkpt>
      <trkpt lat="43.614" lon="1.1983">
        <ele>220</ele>
        <time>2019-12-05T10:07:14.272Z</time>
      </trkpt>
      <trkpt lat="43.614" lon="1.19818">
        <ele>220</ele>
        <time>2019-12-05T10:07:21.377Z</time>
      </trkpt>
      <trkpt lat="43.61407" lon="1.19804">
        <ele>221</ele>
        <time>2019-12-05T10:07:30.646Z</time>
      </trkpt>
      <trkpt lat="43.61413" lon="1.19793">
        <ele>221</ele>
        <time>2019-12-05T10:07:38.284Z</time>
      </trkpt>
      <trkpt lat="43.61418" lon="1.19782">
        <ele>221</ele>
        <time>2019-12-05T10:07:45.229Z</time>
      </trkpt>
      <trkpt lat="43.61422" lon="1.19769">
        <ele>221</ele>
        <time>2019-12-05T10:07:53.411Z</time>
      </trkpt>
    </trkseg>
  </trk>
</gpx>